M I D A S
Marine Information and Data Acquisition System
Tripno 778 of the Zeeleeuw from 2004-04-20 06:56:50 to 2004-04-20 12:07:06
Back to CruiseResearch ActivitiesStationsMapUnderway DataData graphs

EquipmentUnitsComment
TimeDGPSUTC
LatitudeDGPSDM.mWGS84
LongitudeDGPSDM.mWGS84
TemperatureSBE03/SBE38deg celciusITS90
ConductivitySBE21S/mITS90
SalinitySBE21 Practical Salinity Units
ChlorophylAChelsea fluorimeterg/lCalibrated in Aceton
Missing or incorrect values are displayed as -999
Sea surface data collected by the RV Zeeleeuw from 2004-04-20 06:56:50 to 2004-04-20 12:07:06
                                                                                    Next 1000 lines
Time Latitude Longitude Temperature Conductivity Salinity ChlorophylA
2004-04-20 06:56:59 51°13.669 2°55.765 13.28893 0.862887 5.943113 -0.74754
2004-04-20 06:57:04 51°13.669 2°55.764 13.292455 0.86226 5.938802 -0.781249
2004-04-20 06:57:09 51°13.67 2°55.764 13.293481 0.861528 5.933495 -0.781249
2004-04-20 06:57:14 51°13.671 2°55.764 13.294329 0.8609 5.929073 -0.814958
2004-04-20 06:57:18 51°13.672 2°55.765 13.295489 0.860168 5.923877 -0.781249
2004-04-20 06:57:23 51°13.674 2°55.767 13.296025 0.859332 5.918018 -0.781249
2004-04-20 06:57:29 51°13.676 2°55.769 13.296025 0.859332 5.918018 -0.781249
2004-04-20 06:57:33 51°13.678 2°55.771 13.295132 0.426785 2.796974 -0.814958
2004-04-20 06:57:38 51°13.68 2°55.772 12.864328 0.01443 0.084646 7.14046
2004-04-20 06:57:43 51°13.682 2°55.773 12.265849 0.01578 0.092307 3.870648
2004-04-20 06:57:49 51°13.682 2°55.773 11.78619 0.016611 0.097141 44.9287
2004-04-20 06:57:53 51°13.683 2°55.773 11.677698 0.016715 0.097803 65.120631
2004-04-20 06:57:59 51°13.682 2°55.772 11.677698 0.016715 0.097803 65.120631
2004-04-20 06:58:04 51°13.681 2°55.771 11.547364 0.0163 0.095466 68.053349
2004-04-20 06:58:09 51°13.68 2°55.77 11.42742 0.015884 0.093119 68.053349
2004-04-20 06:58:14 51°13.679 2°55.769 11.361532 0.015469 0.09077 67.98593
2004-04-20 06:58:19 51°13.68 2°55.769 10.893326 1.331437 9.9113 67.952221
2004-04-20 06:58:24 51°13.682 2°55.769 10.603061 2.960866 24.062819 67.952221
2004-04-20 06:58:29 51°13.686 2°55.768 10.603061 2.960866 24.062819 67.952221
2004-04-20 06:58:34 51°13.689 2°55.767 10.47435 3.099827 25.56755 67.98593
2004-04-20 06:58:38 51°13.692 2°55.765 10.364137 3.346773 28.004385 67.98593
2004-04-20 06:58:43 51°13.695 2°55.763 10.326487 3.387962 28.686489 67.884802
2004-04-20 06:58:49 51°13.7 2°55.76 10.281204 3.35837 28.908282 67.918512
2004-04-20 06:58:54 51°13.704 2°55.756 10.214249 3.331939 29.090162 67.918512
2004-04-20 06:58:58 51°13.708 2°55.752 10.214249 3.331939 29.090162 67.918512
2004-04-20 06:59:04 51°13.713 2°55.745 10.199101 3.312773 29.124727 67.98593
2004-04-20 06:59:09 51°13.719 2°55.739 10.192273 3.290342 29.055349 67.952221
2004-04-20 06:59:14 51°13.724 2°55.733 10.142404 3.276336 29.012628 67.918512
2004-04-20 06:59:18 51°13.729 2°55.728 10.159016 3.270965 29.032204 67.918512
2004-04-20 06:59:23 51°13.735 2°55.722 10.158642 3.274968 29.119099 67.952221
2004-04-20 06:59:29 51°13.743 2°55.713 10.158642 3.274968 29.119099 67.952221
2004-04-20 06:59:33 51°13.749 2°55.708 10.145634 3.267702 29.089398 67.952221
2004-04-20 06:59:39 51°13.757 2°55.699 10.153589 3.266649 29.104163 67.952221
2004-04-20 06:59:44 51°13.765 2°55.692 10.138848 3.263174 29.103446 67.918512
2004-04-20 06:59:49 51°13.772 2°55.685 10.170291 3.264333 29.134936 67.952221
2004-04-20 06:59:53 51°13.779 2°55.68 10.176746 3.230107 28.805997 67.952221
2004-04-20 06:59:58 51°13.787 2°55.673 10.176746 3.230107 28.805997 67.952221
2004-04-20 07:00:04 51°13.797 2°55.665 10.139971 3.249273 29.000369 67.952221
2004-04-20 07:00:09 51°13.806 2°55.659 10.128176 3.22621 28.777783 67.918512
2004-04-20 07:00:14 51°13.815 2°55.652 10.147271 3.211046 28.631987 67.918512
2004-04-20 07:00:19 51°13.824 2°55.645 10.103643 3.187985 28.398308 67.918512
2004-04-20 07:00:24 51°13.833 2°55.639 10.095963 3.184826 28.373494 67.98593
2004-04-20 07:00:29 51°13.843 2°55.632 10.095963 3.184826 28.373494 67.98593
2004-04-20 07:00:33 51°13.851 2°55.627 10.107296 3.181772 28.350973 67.952221
2004-04-20 07:00:43 51°13.87 2°55.614 10.091326 3.188301 28.4229 67.918512
2004-04-20 07:00:46 51°13.875 2°55.611 10.091326 3.188301 28.4229 67.918512
2004-04-20 07:00:51 51°13.884 2°55.604 10.090249 3.189249 28.445534 67.952221
2004-04-20 07:00:57 51°13.895 2°55.597 10.095026 3.188407 28.452423 67.952221
2004-04-20 07:01:02 51°13.903 2°55.591 10.078867 3.206729 28.642265 67.952221
2004-04-20 07:01:07 51°13.911 2°55.586 10.067248 3.213785 28.720309 67.952221
2004-04-20 07:01:12 51°13.919 2°55.58 10.082146 2.999107 26.612329 67.918512
2004-04-20 07:01:17 51°13.927 2°55.575 10.082146 2.999107 26.612329 67.918512
2004-04-20 07:01:22 51°13.935 2°55.57 10.076853 3.109437 27.696625 67.952221
2004-04-20 07:01:26 51°13.942 2°55.566 10.051129 2.943425 26.066069 67.918512
2004-04-20 07:01:32 51°13.951 2°55.56 10.050895 3.135443 27.956471 67.952221
2004-04-20 07:01:37 51°13.959 2°55.555 10.033271 3.10512 27.662775 67.952221
2004-04-20 07:01:42 51°13.966 2°55.551 10.033552 3.093749 27.552109 67.918512
2004-04-20 07:01:46 51°13.972 2°55.547 10.033552 3.093749 27.552109 67.918512
2004-04-20 07:01:50 51°13.978 2°55.544 10.012454 3.113122 27.746501 67.952221
2004-04-20 07:01:57 51°13.989 2°55.538 10.014752 3.075641 27.38379 67.98593
2004-04-20 07:02:01 51°13.995 2°55.535 9.991583 3.110279 27.731492 67.918512
2004-04-20 07:02:06 51°14.002 2°55.531 9.99815 3.103541 27.674995 67.918512
2004-04-20 07:02:12 51°14.011 2°55.526 9.980325 3.120808 27.851401 67.918512
2004-04-20 07:02:17 51°14.019 2°55.521 9.980325 3.120808 27.851401 67.918512
2004-04-20 07:02:22 51°14.026 2°55.517 9.981404 3.15029 28.150528 67.952221
2004-04-20 07:02:26 51°14.032 2°55.513 9.986986 3.129126 27.949051 67.952221
2004-04-20 07:02:32 51°14.041 2°55.507 9.983984 2.342376 20.331182 67.952221
2004-04-20 07:02:37 51°14.049 2°55.502 9.98389 3.160925 28.281511 67.918512
2004-04-20 07:02:42 51°14.057 2°55.497 9.983843 3.165769 28.334501 67.918512
2004-04-20 07:02:46 51°14.063 2°55.493 9.983843 3.165769 28.334501 67.918512
2004-04-20 07:02:52 51°14.073 2°55.486 9.980559 2.243682 19.407091 67.98593
2004-04-20 07:02:57 51°14.081 2°55.48 9.989144 3.114491 27.831361 67.952221
2004-04-20 07:03:02 51°14.089 2°55.474 9.987549 3.169981 28.380631 67.952221
2004-04-20 07:03:06 51°14.096 2°55.469 9.99407 3.139551 28.081465 67.918512
2004-04-20 07:03:12 51°14.106 2°55.46 9.999323 3.321103 29.883872 67.918512
2004-04-20 07:03:17 51°14.114 2°55.453 9.999323 3.321103 29.883872 67.918512
2004-04-20 07:03:21 51°14.121 2°55.447 9.990833 3.302882 29.702311 67.952221
2004-04-20 07:03:27 51°14.132 2°55.437 9.990317 3.29256 29.598868 67.918512
2004-04-20 07:03:32 51°14.141 2°55.428 9.980465 3.283608 29.509763 67.918512
2004-04-20 07:03:37 51°14.151 2°55.418 9.977557 3.278448 29.457755 67.918512
2004-04-20 07:03:42 51°14.161 2°55.407 9.982107 3.277394 29.444641 67.952221
2004-04-20 07:03:46 51°14.17 2°55.399 9.982107 3.277394 29.444641 67.952221
2004-04-20 07:03:52 51°14.182 2°55.384 9.978542 3.277289 29.444911 67.918512
2004-04-20 07:03:57 51°14.193 2°55.371 9.97568 3.278342 29.456707 67.952221
2004-04-20 07:04:02 51°14.204 2°55.357 9.975023 3.28245 29.500875 67.952221
2004-04-20 07:04:06 51°14.212 2°55.346 9.971973 3.285293 29.533142 67.918512
2004-04-20 07:04:12 51°14.226 2°55.328 9.960993 3.28761 29.556869 67.952221
2004-04-20 07:04:17 51°14.237 2°55.312 9.960993 3.28761 29.556869 67.952221
2004-04-20 07:04:21 51°14.245 2°55.299 9.96592 3.285293 29.535125 67.98593
2004-04-20 07:04:27 51°14.258 2°55.278 9.957614 3.286031 29.544449 67.98593
2004-04-20 07:04:32 51°14.269 2°55.261 9.954657 3.290665 29.593241 67.98593
2004-04-20 07:04:37 51°14.279 2°55.242 9.945692 3.295931 29.649011 67.952221
2004-04-20 07:04:42 51°14.289 2°55.223 9.945833 3.307516 29.766462 67.918512
2004-04-20 07:04:46 51°14.297 2°55.207 9.945833 3.307516 29.766462 67.918512
2004-04-20 07:04:52 51°14.308 2°55.184 9.93743 3.310781 29.803684 67.98593
2004-04-20 07:04:57 51°14.318 2°55.163 9.932735 3.316153 29.85859 67.98593
2004-04-20 07:05:02 51°14.327 2°55.142 9.930575 3.326685 29.967698 67.918512
2004-04-20 07:05:06 51°14.334 2°55.125 9.930106 3.328054 29.986739 67.98593
2004-04-20 07:05:12 51°14.346 2°55.1 9.923861 3.33311 30.039235 67.918512
2004-04-20 07:05:16 51°14.353 2°55.083 9.923861 3.33311 30.039235 67.918512
2004-04-20 07:05:21 51°14.362 2°55.061 9.921654 3.336691 30.078369 67.918512
2004-04-20 07:05:27 51°14.372 2°55.034 9.914938 3.343011 30.146233 67.98593
2004-04-20 07:05:31 51°14.379 2°55.014 9.915549 3.351332 30.233467 67.952221
2004-04-20 07:05:37 51°14.388 2°54.983 9.906203 3.359127 30.31277 67.98593
2004-04-20 07:05:42 51°14.394 2°54.957 9.917427 3.364604 30.372328 67.918512
2004-04-20 07:05:46 51°14.4 2°54.936 9.917427 3.364604 30.372328 67.918512
2004-04-20 07:05:52 51°14.408 2°54.903 9.90935 3.370186 30.431608 67.952221
2004-04-20 07:05:57 51°14.414 2°54.875 9.901318 3.372925 30.46244 67.98593
2004-04-20 07:06:02 51°14.419 2°54.846 9.89911 3.376191 30.497188 67.952221
2004-04-20 07:06:06 51°14.422 2°54.822 9.879989 3.379983 30.537221 67.918512
2004-04-20 07:06:12 51°14.424 2°54.786 9.862131 3.381036 30.547773 67.952221
2004-04-20 07:06:17 51°14.425 2°54.755 9.862131 3.381036 30.547773 67.952221
2004-04-20 07:06:21 51°14.426 2°54.731 9.852401 3.380404 30.544869 67.918512
2004-04-20 07:06:26 51°14.426 2°54.7 9.839567 3.381773 30.562703 67.98593
2004-04-20 07:06:32 51°14.424 2°54.663 9.829457 3.388726 30.637876 67.952221
2004-04-20 07:06:37 51°14.421 2°54.632 9.820334 3.404842 30.809186 67.918512
2004-04-20 07:06:42 51°14.418 2°54.601 9.816242 3.423909 31.013146 67.918512
2004-04-20 07:06:46 51°14.413 2°54.577 9.816242 3.423909 31.013146 67.918512
2004-04-20 07:06:52 51°14.406 2°54.541 9.81342 3.444557 31.231233 67.918512
2004-04-20 07:06:57 51°14.399 2°54.512 9.804059 3.462782 31.42314 67.98593
2004-04-20 07:07:01 51°14.394 2°54.488 9.80627 3.480481 31.610706 67.98593
2004-04-20 07:07:07 51°14.386 2°54.453 9.805471 3.494703 31.762726 67.952221
2004-04-20 07:07:11 51°14.38 2°54.43 9.808857 3.507346 31.900398 67.918512
2004-04-20 07:07:17 51°14.372 2°54.395 9.808857 3.507346 31.900398 67.918512
2004-04-20 07:07:22 51°14.364 2°54.367 9.805 3.516828 32.000514 67.952221
2004-04-20 07:07:27 51°14.355 2°54.339 9.798931 3.527785 32.114168 67.952221
2004-04-20 07:07:32 51°14.346 2°54.312 9.786416 3.532632 32.16463 67.952221
2004-04-20 07:07:37 51°14.336 2°54.285 9.782228 3.54085 32.249219 67.952221
2004-04-20 07:07:41 51°14.328 2°54.264 9.774604 3.550754 32.350913 67.918512
2004-04-20 07:07:46 51°14.318 2°54.238 9.774604 3.550754 32.350913 67.918512
2004-04-20 07:07:51 51°14.307 2°54.212 9.77371 3.565083 32.49822 67.952221
2004-04-20 07:07:57 51°14.295 2°54.182 9.775592 3.577727 32.630758 67.98593
2004-04-20 07:08:02 51°14.284 2°54.156 9.773804 3.590371 32.764883 67.952221
2004-04-20 07:08:06 51°14.275 2°54.136 9.777522 3.600065 32.868439 67.98593
2004-04-20 07:08:11 51°14.264 2°54.11 9.763355 3.609338 32.969277 67.918512
2004-04-20 07:08:17 51°14.252 2°54.079 9.763355 3.609338 32.969277 67.918512
2004-04-20 07:08:22 51°14.242 2°54.053 9.772015 3.61682 33.046771 67.918512
2004-04-20 07:08:26 51°14.234 2°54.031 9.781569 3.618611 33.068704 67.918512
2004-04-20 07:08:32 51°14.223 2°53.999 9.793991 3.620086 33.08519 67.98593
2004-04-20 07:08:37 51°14.214 2°53.972 9.794038 3.619349 33.077693 67.918512
2004-04-20 07:08:42 51°14.206 2°53.944 9.792203 3.622931 33.117099 67.98593
2004-04-20 07:08:46 51°14.199 2°53.922 9.792203 3.622931 33.117099 67.98593
2004-04-20 07:08:52 51°14.189 2°53.889 9.771921 3.61977 33.084217 67.952221
2004-04-20 07:08:57 51°14.18 2°53.862 9.779028 3.61977 33.079738 67.952221
2004-04-20 07:09:02 51°14.171 2°53.835 9.763872 3.616925 33.043369 67.98593
2004-04-20 07:09:07 51°14.162 2°53.808 9.754599 3.61977 33.070784 67.98593
2004-04-20 07:09:12 51°14.153 2°53.781 9.755681 3.62409 33.111698 67.918512
2004-04-20 07:09:17 51°14.143 2°53.754 9.755681 3.62409 33.111698 67.918512
2004-04-20 07:09:22 51°14.133 2°53.727 9.757706 3.627989 33.161043 67.98593
2004-04-20 07:09:26 51°14.125 2°53.706 9.759306 3.629886 33.18407 67.918512
2004-04-20 07:09:32 51°14.114 2°53.673 9.762601 3.632942 33.219643 67.952221
2004-04-20 07:09:37 51°14.104 2°53.646 9.75973 3.637052 33.268955 67.952221
2004-04-20 07:09:42 51°14.095 2°53.619 9.765944 3.639159 33.292655 67.98593
2004-04-20 07:09:47 51°14.086 2°53.591 9.765944 3.639159 33.292655 67.98593
2004-04-20 07:09:51 51°14.079 2°53.569 9.770509 3.640107 33.305314 67.98593
2004-04-20 07:09:57 51°14.069 2°53.535 9.760154 3.641477 33.318506 67.918512
2004-04-20 07:10:02 51°14.061 2°53.506 9.771356 3.641899 33.321291 67.884802
2004-04-20 07:10:07 51°14.053 2°53.478 9.772204 3.641056 33.311959 67.952221
2004-04-20 07:10:12 51°14.045 2°53.449 9.771733 3.642531 33.32547 67.98593
2004-04-20 07:10:17 51°14.037 2°53.42 9.771733 3.642531 33.32547 67.98593
2004-04-20 07:10:21 51°14.031 2°53.397 9.765002 3.643058 33.33008 67.952221
2004-04-20 07:10:27 51°14.021 2°53.364 9.76053 3.64506 33.349706 67.884802
2004-04-20 07:10:32 51°14.012 2°53.335 9.763496 3.645798 33.356461 67.918512
2004-04-20 07:10:37 51°14.003 2°53.307 9.760813 3.647062 33.367073 67.952221
2004-04-20 07:10:42 51°13.994 2°53.279 9.76665 3.6478 33.375335 67.952221
2004-04-20 07:10:46 51°13.987 2°53.256 9.76665 3.6478 33.375335 67.952221
2004-04-20 07:10:52 51°13.975 2°53.223 9.765143 3.650856 33.408706 67.918512
2004-04-20 07:10:56 51°13.968 2°53.201 9.765237 3.648221 33.384901 67.918512
2004-04-20 07:11:02 51°13.957 2°53.166 9.765379 3.65212 33.42309 67.918512
2004-04-20 07:11:06 51°13.95 2°53.143 9.768297 3.652331 33.428255 67.918512
2004-04-20 07:11:11 51°13.941 2°53.115 9.767497 3.65349 33.437794 67.952221
2004-04-20 07:11:17 51°13.931 2°53.08 9.767497 3.65349 33.437794 67.952221
2004-04-20 07:11:22 51°13.923 2°53.05 9.770227 3.65328 33.434893 67.952221
2004-04-20 07:11:26 51°13.917 2°53.027 9.775592 3.654228 33.444551 67.952221
2004-04-20 07:11:32 51°13.908 2°52.991 9.771074 3.655387 33.456355 67.918512
2004-04-20 07:11:37 51°13.901 2°52.96 9.77531 3.654966 33.451307 67.918512
2004-04-20 07:11:42 51°13.894 2°52.93 9.778557 3.657179 33.474599 67.918512
2004-04-20 07:11:46 51°13.89 2°52.905 9.778557 3.657179 33.474599 67.918512
2004-04-20 07:11:51 51°13.884 2°52.874 9.778557 3.65349 33.434775 67.952221
2004-04-20 07:11:57 51°13.877 2°52.837 9.785004 3.66034 33.501504 67.98593
2004-04-20 07:12:01 51°13.872 2°52.813 9.777286 3.662131 33.519749 67.98593
2004-04-20 07:12:07 51°13.862 2°52.777 9.774369 3.664028 33.536041 67.918512
2004-04-20 07:12:11 51°13.854 2°52.754 9.774651 3.660551 33.499869 67.918512
2004-04-20 07:12:17 51°13.843 2°52.719 9.774651 3.660551 33.499869 67.918512
2004-04-20 07:12:22 51°13.832 2°52.691 9.774274 3.668138 33.574114 67.918512
2004-04-20 07:12:26 51°13.824 2°52.669 9.775639 3.669929 33.592362 67.98593
2004-04-20 07:12:32 51°13.812 2°52.635 9.77771 3.671721 33.612888 67.952221
2004-04-20 07:12:37 51°13.801 2°52.607 9.773286 3.667822 33.574683 67.952221
2004-04-20 07:12:42 51°13.791 2°52.579 9.778934 3.673618 33.636769 67.918512
2004-04-20 07:12:47 51°13.78 2°52.551 9.778934 3.673618 33.636769 67.918512
2004-04-20 07:12:51 51°13.771 2°52.529 9.773004 3.676041 33.661469 67.918512
2004-04-20 07:12:57 51°13.758 2°52.496 9.775216 3.676041 33.659949 67.918512
2004-04-20 07:13:02 51°13.747 2°52.468 9.77451 3.67562 33.654894 67.952221
2004-04-20 07:13:06 51°13.738 2°52.446 9.775639 3.672985 33.628049 67.918512
2004-04-20 07:13:12 51°13.725 2°52.413 9.780157 3.655598 33.451704 67.918512
2004-04-20 07:13:17 51°13.714 2°52.384 9.780157 3.655598 33.451704 67.918512
2004-04-20 07:13:22 51°13.704 2°52.356 9.776957 3.6674 33.571905 67.952221
2004-04-20 07:13:26 51°13.696 2°52.333 9.77964 3.673723 33.635565 67.98593
2004-04-20 07:13:32 51°13.684 2°52.298 9.780487 3.6674 33.571147 67.98593
2004-04-20 07:13:37 51°13.675 2°52.269 9.773521 3.66877 33.585861 68.01964
2004-04-20 07:13:42 51°13.665 2°52.24 9.773521 3.669508 33.591859 67.952221
2004-04-20 07:13:47 51°13.656 2°52.211 9.773521 3.669508 33.591859 67.952221
2004-04-20 07:13:52 51°13.646 2°52.181 9.773427 3.672775 33.625142 67.952221
2004-04-20 07:13:57 51°13.636 2°52.152 9.775075 3.672248 33.618256 67.918512
2004-04-20 07:14:02 51°13.626 2°52.124 9.774086 3.671721 33.612888 67.98593
2004-04-20 07:14:06 51°13.618 2°52.101 9.772204 3.67562 33.654134 68.01964
2004-04-20 07:14:12 51°13.605 2°52.067 9.772815 3.67699 33.668855 67.952221
2004-04-20 07:14:17 51°13.594 2°52.04 9.772815 3.67699 33.668855 67.952221
2004-04-20 07:14:21 51°13.585 2°52.017 9.770933 3.672248 33.62205 67.952221
2004-04-20 07:14:27 51°13.571 2°51.984 9.770086 3.676358 33.663931 67.952221
2004-04-20 07:14:32 51°13.56 2°51.957 9.770227 3.679414 33.695078 67.98593
2004-04-20 07:14:37 51°13.548 2°51.929 9.774133 3.674988 33.651489 67.952221
2004-04-20 07:14:41 51°13.539 2°51.907 9.774792 3.677938 33.682322 67.98593
2004-04-20 07:14:46 51°13.529 2°51.879 9.774792 3.677938 33.682322 67.98593
2004-04-20 07:14:51 51°13.518 2°51.851 9.77338 3.674566 33.647194 67.952221
2004-04-20 07:14:57 51°13.506 2°51.816 9.778275 3.676674 33.670193 67.952221
2004-04-20 07:15:02 51°13.495 2°51.787 9.779498 3.673723 33.640121 67.952221
2004-04-20 07:15:06 51°13.488 2°51.764 9.777098 3.675831 33.661601 67.98593
2004-04-20 07:15:11 51°13.478 2°51.735 9.779498 3.674882 33.649656 67.98593
2004-04-20 07:15:17 51°13.467 2°51.699 9.779498 3.674882 33.649656 67.98593
2004-04-20 07:15:22 51°13.456 2°51.671 9.776392 3.672564 33.627549 67.98593
2004-04-20 07:15:26 51°13.448 2°51.648 9.775027 3.674145 33.641379 67.952221
2004-04-20 07:15:31 51°13.437 2°51.62 9.778887 3.672458 33.62268 68.01964
2004-04-20 07:15:37 51°13.424 2°51.586 9.77771 3.671721 33.613646 67.98593
2004-04-20 07:15:42 51°13.413 2°51.558 9.77931 3.673512 33.631899 67.98593
2004-04-20 07:15:47 51°13.402 2°51.529 9.77931 3.673512 33.631899 67.98593
2004-04-20 07:15:52 51°13.391 2°51.501 9.781004 3.676147 33.660263 67.952221
2004-04-20 07:15:57 51°13.38 2°51.473 9.780487 3.67699 33.670375 68.01964
2004-04-20 07:16:01 51°13.372 2°51.45 9.782416 3.681416 33.713965 67.98593
2004-04-20 07:16:07 51°13.359 2°51.416 9.786275 3.68247 33.723946 67.952221
2004-04-20 07:16:12 51°13.349 2°51.387 9.786839 3.683313 33.732539 67.952221
2004-04-20 07:16:16 51°13.341 2°51.365 9.786839 3.683313 33.732539 67.952221
2004-04-20 07:16:22 51°13.329 2°51.33 9.783734 3.683207 33.731465 68.01964
2004-04-20 07:16:27 51°13.319 2°51.301 9.785663 3.68268 33.725333 68.01964
2004-04-20 07:16:31 51°13.311 2°51.277 9.788486 3.68247 33.722423 67.98593
2004-04-20 07:16:37 51°13.298 2°51.243 9.78858 3.682364 33.718305 67.98593
2004-04-20 07:16:42 51°13.288 2°51.214 9.789427 3.682259 33.714948 67.952221
2004-04-20 07:16:46 51°13.279 2°51.192 9.789427 3.682259 33.714948 67.952221
2004-04-20 07:16:52 51°13.266 2°51.157 9.790415 3.682786 33.721079 67.952221
2004-04-20 07:16:57 51°13.255 2°51.129 9.792862 3.683102 33.724301 67.98593
2004-04-20 07:17:01 51°13.246 2°51.107 9.79338 3.683945 33.731371 67.98593
2004-04-20 07:17:07 51°13.233 2°51.073 9.792956 3.684683 33.738889 67.952221
2004-04-20 07:17:12 51°13.222 2°51.045 9.794038 3.686053 33.750567 67.98593
2004-04-20 07:17:17 51°13.211 2°51.017 9.794038 3.686053 33.750567 67.98593
2004-04-20 07:17:22 51°13.2 2°50.988 9.797802 3.686896 33.759159 67.98593
2004-04-20 07:17:26 51°13.192 2°50.965 9.798555 3.687212 33.760858 67.98593
2004-04-20 07:17:31 51°13.182 2°50.936 9.799073 3.687739 33.765466 67.98593
2004-04-20 07:17:37 51°13.17 2°50.901 9.796438 3.688371 33.771149 67.952221
2004-04-20 07:17:42 51°13.16 2°50.872 9.797238 3.688687 33.775895 67.98593
2004-04-20 07:17:47 51°13.15 2°50.843 9.797238 3.688687 33.775895 67.98593
2004-04-20 07:17:52 51°13.14 2°50.813 9.79959 3.689109 33.775619 67.952221
2004-04-20 07:17:57 51°13.131 2°50.784 9.797661 3.690162 33.785596 67.952221
2004-04-20 07:18:02 51°13.12 2°50.755 9.798367 3.691006 33.793426 67.952221
2004-04-20 07:18:06 51°13.112 2°50.732 9.796861 3.691954 33.803856 67.98593
2004-04-20 07:18:12 51°13.099 2°50.697 9.797849 3.692902 33.81276 67.98593
2004-04-20 07:18:17 51°13.089 2°50.669 9.797849 3.692902 33.81276 67.98593
2004-04-20 07:18:22 51°13.078 2°50.641 9.795873 3.69364 33.818753 67.952221
2004-04-20 07:18:27 51°13.067 2°50.612 9.798226 3.694694 33.830257 67.952221
2004-04-20 07:18:32 51°13.056 2°50.584 9.79672 3.695537 33.838088 67.952221
2004-04-20 07:18:37 51°13.046 2°50.555 9.797755 3.696802 33.852506 67.952221
2004-04-20 07:18:41 51°13.037 2°50.533 9.798884 3.697539 33.860026 68.01964
2004-04-20 07:18:46 51°13.027 2°50.504 9.798884 3.697539 33.860026 68.01964
2004-04-20 07:18:52 51°13.014 2°50.47 9.793568 3.698699 33.872609 67.98593
2004-04-20 07:18:57 51°13.004 2°50.441 9.79465 3.699542 33.882733 67.952221
2004-04-20 07:19:02 51°12.994 2°50.412 9.797849 3.699963 33.886267 67.952221
2004-04-20 07:19:06 51°12.986 2°50.388 9.793427 3.700701 33.893789 68.01964
2004-04-20 07:19:12 51°12.974 2°50.353 9.788627 3.700912 33.895173 68.053349
2004-04-20 07:19:17 51°12.964 2°50.324 9.788627 3.700912 33.895173 68.053349
2004-04-20 07:19:21 51°12.956 2°50.301 9.790415 3.701544 33.90315 68.01964
2004-04-20 07:19:27 51°12.943 2°50.267 9.790792 3.701755 33.904535 68.01964
2004-04-20 07:19:32 51°12.932 2°50.238 9.789521 3.70186 33.905609 68.01964
2004-04-20 07:19:37 51°12.921 2°50.21 9.787357 3.701966 33.906684 68.01964
2004-04-20 07:19:42 51°12.911 2°50.181 9.787357 3.702282 33.914499 68.053349
2004-04-20 07:19:46 51°12.902 2°50.159 9.787357 3.702282 33.914499 68.053349
2004-04-20 07:19:51 51°12.891 2°50.13 9.785945 3.702176 33.91419 68.053349
2004-04-20 07:19:57 51°12.877 2°50.097 9.788298 3.702176 33.91419 68.053349
2004-04-20 07:20:02 51°12.867 2°50.068 9.786698 3.702282 33.916795 68.053349
2004-04-20 07:20:07 51°12.856 2°50.039 9.787216 3.701966 33.914336 68.01964
2004-04-20 07:20:12 51°12.846 2°50.01 9.78858 3.70186 33.912496 68.053349
2004-04-20 07:20:17 51°12.835 2°49.982 9.78858 3.70186 33.912496 68.053349
2004-04-20 07:20:22 51°12.825 2°49.953 9.789239 3.701649 33.911877 68.087059
2004-04-20 07:20:26 51°12.816 2°49.93 9.785569 3.701755 33.912187 68.087059
2004-04-20 07:20:31 51°12.806 2°49.901 9.782087 3.701966 33.914336 68.053349
2004-04-20 07:20:37 51°12.793 2°49.866 9.782934 3.702176 33.918017 68.053349
2004-04-20 07:20:42 51°12.783 2°49.838 9.780157 3.702282 33.917561 68.053349
2004-04-20 07:20:47 51°12.772 2°49.809 9.780157 3.702282 33.917561 68.053349
2004-04-20 07:20:52 51°12.761 2°49.78 9.782087 3.702598 33.921551 68.053349
2004-04-20 07:20:57 51°12.75 2°49.752 9.779875 3.703019 33.926617 68.120768
2004-04-20 07:21:02 51°12.74 2°49.723 9.77931 3.703441 33.931682 68.120768
2004-04-20 07:21:06 51°12.731 2°49.7 9.778745 3.703863 33.939813 68.087059
2004-04-20 07:21:12 51°12.718 2°49.665 9.775639 3.704495 33.946264 68.087059
2004-04-20 07:21:17 51°12.708 2°49.636 9.775639 3.704495 33.946264 68.087059
2004-04-20 07:21:22 51°12.698 2°49.607 9.782275 3.705127 33.953481 68.087059
2004-04-20 07:21:27 51°12.688 2°49.578 9.777851 3.70576 33.959933 68.120768
2004-04-20 07:21:32 51°12.678 2°49.548 9.776063 3.70597 33.962084 68.087059
2004-04-20 07:21:37 51°12.668 2°49.519 9.775875 3.706708 33.971144 68.087059
2004-04-20 07:21:41 51°12.66 2°49.495 9.77531 3.70734 33.978364 68.087059
2004-04-20 07:21:47 51°12.647 2°49.46 9.77531 3.70734 33.978364 68.087059
2004-04-20 07:21:52 51°12.636 2°49.431 9.774745 3.707446 33.978672 68.087059
2004-04-20 07:21:57 51°12.626 2°49.403 9.772062 3.707657 33.98159 68.087059
2004-04-20 07:22:01 51°12.617 2°49.38 9.772015 3.7085 33.990961 68.087059
2004-04-20 07:22:07 51°12.604 2°49.346 9.774416 3.708289 33.991113 68.120768
2004-04-20 07:22:12 51°12.593 2°49.317 9.774792 3.7085 33.992496 68.221896
2004-04-20 07:22:17 51°12.582 2°49.288 9.774792 3.7085 33.992496 68.221896
2004-04-20 07:22:22 51°12.571 2°49.259 9.773568 3.708816 33.994955 68.087059
2004-04-20 07:22:26 51°12.563 2°49.236 9.774933 3.709448 34.003712 68.120768
2004-04-20 07:22:31 51°12.552 2°49.207 9.776251 3.709554 34.006323 68.356734
2004-04-20 07:22:37 51°12.54 2°49.172 9.776722 3.71008 34.010166 68.255606
2004-04-20 07:22:41 51°12.532 2°49.149 9.776816 3.710186 34.010474 68.390443
2004-04-20 07:22:47 51°12.52 2°49.113 9.776816 3.710186 34.010474 68.390443
2004-04-20 07:22:52 51°12.51 2°49.084 9.776863 3.710607 34.016312 68.390443
2004-04-20 07:22:57 51°12.499 2°49.055 9.775027 3.710607 34.015544 68.289315
2004-04-20 07:23:02 51°12.489 2°49.026 9.776581 3.710818 34.017696 68.323024
2004-04-20 07:23:06 51°12.481 2°49.002 9.777098 3.711134 34.018618 68.221896
2004-04-20 07:23:11 51°12.47 2°48.974 9.777569 3.711872 34.026148 67.817383
2004-04-20 07:23:17 51°12.457 2°48.939 9.777569 3.711872 34.026148 67.817383
2004-04-20 07:23:21 51°12.448 2°48.917 9.775875 3.711134 34.020923 67.513999
2004-04-20 07:23:27 51°12.435 2°48.882 9.777381 3.712504 34.032602 67.210614
2004-04-20 07:23:32 51°12.424 2°48.854 9.77851 3.713347 34.041977 66.637554
2004-04-20 07:23:37 51°12.413 2°48.825 9.782134 3.714401 34.051966 66.671264
2004-04-20 07:23:42 51°12.403 2°48.796 9.782228 3.71535 34.061649 66.603845
2004-04-20 07:23:46 51°12.395 2°48.773 9.782228 3.71535 34.061649 66.603845
2004-04-20 07:23:51 51°12.384 2°48.744 9.781381 3.715982 34.069642 66.536426
2004-04-20 07:23:57 51°12.371 2°48.71 9.781945 3.716614 34.075329 65.997076
2004-04-20 07:24:02 51°12.361 2°48.681 9.782792 3.716825 34.076711 66.233042
2004-04-20 07:24:06 51°12.352 2°48.658 9.781381 3.717036 34.077324 65.120631
2004-04-20 07:24:12 51°12.339 2°48.624 9.782369 3.717879 34.083623 66.131913
2004-04-20 07:24:17 51°12.329 2°48.595 9.782369 3.717879 34.083623 66.131913
2004-04-20 07:24:21 51°12.32 2°48.572 9.782557 3.717879 34.084392 65.558853
2004-04-20 07:24:27 51°12.307 2°48.538 9.785569 3.718301 34.088696 66.030785
2004-04-20 07:24:31 51°12.299 2°48.515 9.785851 3.71809 34.085005 66.603845
2004-04-20 07:24:37 51°12.287 2°48.479 9.786839 3.718617 34.091154 67.345452
2004-04-20 07:24:42 51°12.278 2°48.45 9.787639 3.718722 34.09146 67.682546
2004-04-20 07:24:46 51°12.27 2°48.426 9.787639 3.718722 34.09146 67.682546
2004-04-20 07:24:51 51°12.262 2°48.395 9.788486 3.718933 34.092073 68.120768
2004-04-20 07:24:57 51°12.251 2°48.359 9.788439 3.719038 34.093149 68.323024
2004-04-20 07:25:02 51°12.243 2°48.328 9.788439 3.719249 34.094531 68.356734
2004-04-20 07:25:07 51°12.234 2°48.298 9.789616 3.719354 34.094837 68.356734
2004-04-20 07:25:12 51°12.226 2°48.267 9.788769 3.719565 34.094679 68.323024
2004-04-20 07:25:17 51°12.217 2°48.237 9.788769 3.719565 34.094679 68.323024
2004-04-20 07:25:22 51°12.208 2°48.207 9.785992 3.719671 34.094986 68.120768
2004-04-20 07:25:27 51°12.199 2°48.177 9.785098 3.719354 34.090219 68.323024
2004-04-20 07:25:32 51°12.19 2°48.147 9.784063 3.719776 34.096831 68.154477
2004-04-20 07:25:37 51°12.18 2°48.117 9.784298 3.719776 34.096061 68.087059
2004-04-20 07:25:41 51°12.173 2°48.093 9.784957 3.719987 34.098982 68.087059
2004-04-20 07:25:46 51°12.164 2°48.063 9.784957 3.719987 34.098982 68.087059
2004-04-20 07:25:52 51°12.153 2°48.027 9.78331 3.719881 34.097907 68.087059
2004-04-20 07:25:57 51°12.144 2°47.996 9.784769 3.719776 34.09914 68.087059
2004-04-20 07:26:02 51°12.135 2°47.966 9.783781 3.719671 34.098834 68.120768
2004-04-20 07:26:07 51°12.126 2°47.935 9.782792 3.719776 34.10068 68.154477
2004-04-20 07:26:12 51°12.118 2°47.904 9.78364 3.719881 34.100986 68.289315
2004-04-20 07:26:17 51°12.109 2°47.874 9.78364 3.719881 34.100986 68.289315
2004-04-20 07:26:21 51°12.102 2°47.849 9.782651 3.719881 34.101755 68.323024
2004-04-20 07:26:27 51°12.092 2°47.813 9.777851 3.719881 34.100216 68.255606
2004-04-20 07:26:32 51°12.083 2°47.782 9.777522 3.719987 34.102831 68.087059
2004-04-20 07:26:37 51°12.074 2°47.752 9.776298 3.719776 34.09991 67.176905
2004-04-20 07:26:42 51°12.064 2°47.722 9.775075 3.719987 34.102831 67.075777
2004-04-20 07:26:46 51°12.057 2°47.697 9.775075 3.719987 34.102831 67.075777
2004-04-20 07:26:51 51°12.048 2°47.667 9.775498 3.719671 34.101143 66.637554
2004-04-20 07:26:57 51°12.038 2°47.63 9.774604 3.719987 34.105911 66.199332
2004-04-20 07:27:02 51°12.029 2°47.6 9.777428 3.720198 34.108833 65.424016
2004-04-20 07:27:07 51°12.021 2°47.569 9.773427 3.720198 34.111914 65.255469
2004-04-20 07:27:12 51°12.012 2°47.538 9.772298 3.720935 34.120217 64.513862
2004-04-20 07:27:17 51°12.004 2°47.507 9.772298 3.720935 34.120217 64.513862
2004-04-20 07:27:22 51°11.995 2°47.477 9.772815 3.721146 34.120829 64.581281
2004-04-20 07:27:26 51°11.988 2°47.452 9.772815 3.720935 34.119447 63.468871
2004-04-20 07:27:32 51°11.977 2°47.415 9.768391 3.720935 34.118676 62.828392
2004-04-20 07:27:37 51°11.969 2°47.385 9.771074 3.721146 34.120829 62.221623
2004-04-20 07:27:41 51°11.961 2°47.361 9.767591 3.721462 34.125598 61.850819
2004-04-20 07:27:47 51°11.95 2°47.324 9.767591 3.721462 34.125598 61.850819
2004-04-20 07:27:51 51°11.943 2°47.3 9.765285 3.721357 34.126834 61.581144
2004-04-20 07:27:57 51°11.933 2°47.263 9.768862 3.721673 34.130833 61.547435
2004-04-20 07:28:02 51°11.924 2°47.232 9.76825 3.721252 34.126528 61.210341
2004-04-20 07:28:07 51°11.916 2°47.201 9.76472 3.721462 34.129452 61.210341
2004-04-20 07:28:12 51°11.907 2°47.171 9.76472 3.721779 34.134993 61.041794
2004-04-20 07:28:17 51°11.898 2°47.14 9.76472 3.721779 34.134993 61.041794
2004-04-20 07:28:22 51°11.89 2°47.109 9.764249 3.721673 34.134688 60.839537
2004-04-20 07:28:26 51°11.883 2°47.085 9.763025 3.721673 34.133917 60.603571
2004-04-20 07:28:31 51°11.874 2°47.055 9.764155 3.721884 34.137612 60.468734
2004-04-20 07:28:37 51°11.863 2°47.019 9.760295 3.722095 34.138994 60.030512
2004-04-20 07:28:42 51°11.854 2°46.988 9.760295 3.721989 34.139459 59.996802
2004-04-20 07:28:47 51°11.845 2°46.958 9.760295 3.721989 34.139459 59.996802
2004-04-20 07:28:52 51°11.836 2°46.927 9.759165 3.722095 34.142078 60.401315
2004-04-20 07:28:57 51°11.828 2°46.896 9.761378 3.722516 34.146384 60.401315
2004-04-20 07:29:01 51°11.821 2°46.871 9.762507 3.722516 34.147927 60.873247
2004-04-20 07:29:07 51°11.811 2°46.834 9.760671 3.722516 34.148699 61.581144
2004-04-20 07:29:12 51°11.802 2°46.803 9.759448 3.722727 34.151623 61.884529
2004-04-20 07:29:17 51°11.793 2°46.772 9.759448 3.722727 34.151623 61.884529
2004-04-20 07:29:22 51°11.785 2°46.742 9.759165 3.722727 34.152395 61.7834
2004-04-20 07:29:26 51°11.778 2°46.717 9.758035 3.722833 34.153472 61.614853
2004-04-20 07:29:32 51°11.767 2°46.68 9.759636 3.722727 34.151623 61.412597
2004-04-20 07:29:36 51°11.76 2°46.656 9.757941 3.722727 34.152395 62.120494
2004-04-20 07:29:42 51°11.749 2°46.62 9.758082 3.723043 34.155625 62.289042
2004-04-20 07:29:46 51°11.742 2°46.595 9.758082 3.723043 34.155625 62.289042
2004-04-20 07:29:52 51°11.732 2°46.559 9.758647 3.723359 34.158855 62.39017
2004-04-20 07:29:57 51°11.723 2°46.528 9.757565 3.723149 34.156702 62.862101
2004-04-20 07:30:02 51°11.714 2°46.497 9.75893 3.72357 34.161009 63.030648
2004-04-20 07:30:07 51°11.706 2°46.466 9.757894 3.723676 34.163629 62.895811
2004-04-20 07:30:12 51°11.697 2°46.436 9.759495 3.723992 34.16686 62.96323
2004-04-20 07:30:17 51°11.69 2°46.404 9.759495 3.723992 34.16686 62.96323
2004-04-20 07:30:22 51°11.682 2°46.374 9.761001 3.723992 34.168403 63.536289
2004-04-20 07:30:26 51°11.676 2°46.349 9.76086 3.723992 34.166088 64.07564
2004-04-20 07:30:32 51°11.667 2°46.311 9.758035 3.724519 34.173016 63.603708
2004-04-20 07:30:37 51°11.659 2°46.28 9.757423 3.724308 34.17009 63.738546
2004-04-20 07:30:41 51°11.653 2°46.255 9.757517 3.724624 34.173321 63.940802
2004-04-20 07:30:47 51°11.644 2°46.217 9.757517 3.724624 34.173321 63.940802
2004-04-20 07:30:52 51°11.636 2°46.186 9.754881 3.724413 34.170395 63.569999
2004-04-20 07:30:57 51°11.628 2°46.155 9.756293 3.724624 34.171776 64.143059
2004-04-20 07:31:01 51°11.622 2°46.13 9.757706 3.72473 34.174397 64.04193
2004-04-20 07:31:07 51°11.613 2°46.092 9.755776 3.724624 34.174865 64.547571
2004-04-20 07:31:12 51°11.605 2°46.061 9.757094 3.724413 34.171939 65.356597
2004-04-20 07:31:17 51°11.597 2°46.03 9.757094 3.724413 34.171939 65.356597
2004-04-20 07:31:22 51°11.589 2°45.999 9.7578 3.724624 34.175637 66.131913
2004-04-20 07:31:26 51°11.583 2°45.974 9.757847 3.724519 34.17456 67.210614
2004-04-20 07:31:31 51°11.576 2°45.942 9.755634 3.724519 34.173788 67.513999
2004-04-20 07:31:37 51°11.567 2°45.905 9.755164 3.72494 34.178095 67.884802
2004-04-20 07:31:42 51°11.559 2°45.873 9.757235 3.724413 34.172711 68.323024
2004-04-20 07:31:47 51°11.552 2°45.842 9.757235 3.724413 34.172711 68.323024
2004-04-20 07:31:52 51°11.544 2°45.811 9.75474 3.724413 34.171939 68.356734
2004-04-20 07:31:57 51°11.537 2°45.78 9.75281 3.724519 34.172244 68.255606
2004-04-20 07:32:02 51°11.529 2°45.749 9.750456 3.724835 34.178563 68.154477
2004-04-20 07:32:06 51°11.523 2°45.724 9.751821 3.724413 34.1758 68.289315
2004-04-20 07:32:11 51°11.515 2°45.692 9.749938 3.724413 34.174255 68.120768
2004-04-20 07:32:17 51°11.506 2°45.655 9.749938 3.724413 34.174255 68.120768
2004-04-20 07:32:22 51°11.498 2°45.624 9.748667 3.724519 34.175332 68.120768
2004-04-20 07:32:27 51°11.49 2°45.592 9.748007 3.724308 34.174723 68.087059
2004-04-20 07:32:32 51°11.483 2°45.561 9.748384 3.724308 34.174723 68.053349
2004-04-20 07:32:37 51°11.475 2°45.53 9.746595 3.723992 34.173808 68.087059
2004-04-20 07:32:42 51°11.467 2°45.499 9.743723 3.724413 34.177344 68.087059
2004-04-20 07:32:47 51°11.459 2°45.468 9.743723 3.724413 34.177344 68.087059
2004-04-20 07:32:52 51°11.452 2°45.437 9.741792 3.724097 34.17643 68.087059
2004-04-20 07:32:57 51°11.444 2°45.405 9.741792 3.724203 34.178279 68.01964
2004-04-20 07:33:02 51°11.436 2°45.374 9.738025 3.723992 34.175353 68.053349
2004-04-20 07:33:06 51°11.43 2°45.349 9.737177 3.724097 34.178747 68.087059
2004-04-20 07:33:12 51°11.421 2°45.312 9.735717 3.724203 34.180597 68.087059
2004-04-20 07:33:17 51°11.413 2°45.281 9.735717 3.724203 34.180597 68.087059
2004-04-20 07:33:22 51°11.405 2°45.249 9.735576 3.724308 34.183992 68.087059
2004-04-20 07:33:27 51°11.398 2°45.218 9.734964 3.724308 34.184765 68.01964
2004-04-20 07:33:32 51°11.39 2°45.187 9.727617 3.724203 34.185233 68.053349
2004-04-20 07:33:37 51°11.383 2°45.156 9.726016 3.724519 34.190783 68.01964
2004-04-20 07:33:41 51°11.376 2°45.131 9.725404 3.72473 34.193711 68.087059
2004-04-20 07:33:46 51°11.369 2°45.1 9.725404 3.72473 34.193711 68.087059
2004-04-20 07:33:52 51°11.359 2°45.063 9.722342 3.72473 34.19603 68.053349
2004-04-20 07:33:57 51°11.351 2°45.032 9.724933 3.724414 34.194344 68.053349
2004-04-20 07:34:02 51°11.343 2°45.001 9.721447 3.724519 34.196968 68.087059
2004-04-20 07:34:07 51°11.336 2°44.97 9.721588 3.72473 34.20067 68.053349
2004-04-20 07:34:12 51°11.328 2°44.938 9.721117 3.724414 34.20053 68.087059
2004-04-20 07:34:17 51°11.321 2°44.907 9.721117 3.724414 34.20053 68.087059
2004-04-20 07:34:22 51°11.313 2°44.876 9.718385 3.724625 34.203459 68.087059
2004-04-20 07:34:27 51°11.306 2°44.845 9.720505 3.724941 34.209014 68.053349
2004-04-20 07:34:32 51°11.298 2°44.814 9.718244 3.724835 34.207936 68.087059
2004-04-20 07:34:37 51°11.29 2°44.783 9.719092 3.725046 34.210865 68.053349
2004-04-20 07:34:42 51°11.283 2°44.752 9.7157 3.724941 34.209787 68.087059
2004-04-20 07:34:46 51°11.276 2°44.727 9.7157 3.724941 34.209787 68.087059
2004-04-20 07:34:52 51°11.267 2°44.69 9.713816 3.724941 34.212109 68.087059
2004-04-20 07:34:57 51°11.259 2°44.659 9.712591 3.725046 34.213961 68.120768
2004-04-20 07:35:02 51°11.252 2°44.628 9.715983 3.724835 34.211031 68.087059
2004-04-20 07:35:06 51°11.245 2°44.603 9.713015 3.724941 34.213657 68.087059
2004-04-20 07:35:12 51°11.236 2°44.565 9.713204 3.725046 34.217057 68.120768
2004-04-20 07:35:17 51°11.228 2°44.534 9.713204 3.725046 34.217057 68.120768
2004-04-20 07:35:22 51°11.221 2°44.503 9.707786 3.721779 34.183637 68.087059
2004-04-20 07:35:26 51°11.215 2°44.478 9.709341 3.725362 34.22184 68.120768
2004-04-20 07:35:32 51°11.206 2°44.44 9.709293 3.725257 34.220761 68.053349
2004-04-20 07:35:37 51°11.198 2°44.409 9.708493 3.725468 34.223692 68.053349
2004-04-20 07:35:42 51°11.19 2°44.378 9.707927 3.725257 34.221536 68.053349
2004-04-20 07:35:46 51°11.184 2°44.353 9.707927 3.725257 34.221536 68.053349
2004-04-20 07:35:52 51°11.175 2°44.316 9.705289 3.725152 34.223554 68.087059
2004-04-20 07:35:57 51°11.168 2°44.285 9.702509 3.724835 34.220319 68.087059
2004-04-20 07:36:01 51°11.162 2°44.26 9.70331 3.724519 34.218633 68.053349
2004-04-20 07:36:06 51°11.154 2°44.229 9.700436 3.72473 34.22079 68.01964
2004-04-20 07:36:11 51°11.147 2°44.198 9.699352 3.724519 34.218633 68.01964
2004-04-20 07:36:17 51°11.138 2°44.16 9.699352 3.724519 34.218633 68.01964
2004-04-20 07:36:22 51°11.13 2°44.129 9.694405 3.724309 34.218025 68.087059
2004-04-20 07:36:27 51°11.122 2°44.098 9.69431 3.723992 34.216338 68.087059
2004-04-20 07:36:32 51°11.115 2°44.067 9.695441 3.723887 34.216034 68.087059
2004-04-20 07:36:37 51°11.108 2°44.036 9.692473 3.723571 34.214348 68.053349
2004-04-20 07:36:42 51°11.1 2°44.004 9.688184 3.723571 34.216671 68.053349
2004-04-20 07:36:46 51°11.094 2°43.98 9.688184 3.723571 34.216671 68.053349
2004-04-20 07:36:51 51°11.087 2°43.948 9.688467 3.72336 34.216062 68.087059
2004-04-20 07:36:56 51°11.08 2°43.917 9.684508 3.723149 34.215454 68.087059
2004-04-20 07:37:02 51°11.071 2°43.879 9.68333 3.722939 34.214846 68.120768
2004-04-20 07:37:07 51°11.064 2°43.848 9.683377 3.723044 34.219023 68.120768
2004-04-20 07:37:11 51°11.058 2°43.823 9.686723 3.722728 34.216561 68.087059
2004-04-20 07:37:17 51°11.048 2°43.786 9.686723 3.722728 34.216561 68.087059
2004-04-20 07:37:22 51°11.04 2°43.755 9.682953 3.722728 34.218885 68.120768
2004-04-20 07:37:26 51°11.034 2°43.73 9.682765 3.722728 34.220435 68.087059
2004-04-20 07:37:31 51°11.027 2°43.7 9.681398 3.722728 34.221985 68.120768
2004-04-20 07:37:37 51°11.018 2°43.662 9.681869 3.722728 34.221985 68.120768
2004-04-20 07:37:42 51°11.01 2°43.631 9.680549 3.722833 34.223838 68.120768
2004-04-20 07:37:46 51°11.004 2°43.606 9.680549 3.722833 34.223838 68.120768
2004-04-20 07:37:52 51°10.996 2°43.569 9.679607 3.72315 34.228626 68.120768
2004-04-20 07:37:57 51°10.988 2°43.537 9.680125 3.723466 34.232638 68.120768
2004-04-20 07:38:02 51°10.981 2°43.506 9.675742 3.723993 34.238033 68.154477
2004-04-20 07:38:07 51°10.974 2°43.475 9.675695 3.724203 34.240192 68.120768
2004-04-20 07:38:12 51°10.966 2°43.444 9.673903 3.724203 34.240967 68.323024
2004-04-20 07:38:17 51°10.959 2°43.413 9.673903 3.724203 34.240967 68.323024
2004-04-20 07:38:22 51°10.951 2°43.382 9.672254 3.724625 34.244508 68.356734
2004-04-20 07:38:26 51°10.945 2°43.357 9.671499 3.724836 34.248217 67.379161
2004-04-20 07:38:31 51°10.938 2°43.326 9.672631 3.724941 34.250072 66.233042
2004-04-20 07:38:37 51°10.929 2°43.289 9.671405 3.724836 34.250544 65.053212
2004-04-20 07:38:42 51°10.921 2°43.258 9.672395 3.724836 34.252096 64.04193
2004-04-20 07:38:47 51°10.914 2°43.227 9.672395 3.724836 34.252096 64.04193
2004-04-20 07:38:52 51°10.906 2°43.196 9.671829 3.725047 34.255806 63.671127
2004-04-20 07:38:57 51°10.899 2°43.165 9.671311 3.725257 34.258741 62.322751
2004-04-20 07:39:02 51°10.891 2°43.134 9.671169 3.725152 34.258438 62.187913
2004-04-20 07:39:06 51°10.885 2°43.109 9.668388 3.725574 34.263532 61.176631
2004-04-20 07:39:12 51°10.877 2°43.072 9.6682 3.725574 34.263532 60.67099
2004-04-20 07:39:17 51°10.869 2°43.041 9.6682 3.725574 34.263532 60.67099
2004-04-20 07:39:21 51°10.863 2°43.017 9.666173 3.725784 34.264914 59.963093
2004-04-20 07:39:26 51°10.856 2°42.986 9.663815 3.72589 34.26677 59.288905
2004-04-20 07:39:32 51°10.847 2°42.948 9.666173 3.726101 34.270482 58.614717
2004-04-20 07:39:37 51°10.839 2°42.918 9.664334 3.725995 34.271731 58.041657
2004-04-20 07:39:42 51°10.832 2°42.887 9.661175 3.726417 34.27372 57.771982
2004-04-20 07:39:47 51°10.824 2°42.856 9.661175 3.726417 34.27372 57.771982
2004-04-20 07:39:52 51°10.817 2°42.825 9.661034 3.726311 34.27497 56.996665
2004-04-20 07:39:57 51°10.81 2°42.794 9.659761 3.726311 34.275747 56.15393
2004-04-20 07:40:02 51°10.803 2°42.763 9.658629 3.726417 34.279156 55.277486
2004-04-20 07:40:06 51°10.797 2°42.738 9.654763 3.726522 34.279459 54.299913
2004-04-20 07:40:12 51°10.788 2°42.701 9.654292 3.726628 34.282869 53.389759
2004-04-20 07:40:16 51°10.782 2°42.676 9.654292 3.726628 34.282869 53.389759
2004-04-20 07:40:22 51°10.773 2°42.639 9.652688 3.726522 34.28179 52.951537
2004-04-20 07:40:27 51°10.766 2°42.608 9.649293 3.726944 34.287663 50.996392
2004-04-20 07:40:32 51°10.758 2°42.578 9.648303 3.726522 34.28412 50.119947
2004-04-20 07:40:37 51°10.751 2°42.547 9.645662 3.726733 34.290165 48.164802
2004-04-20 07:40:41 51°10.744 2°42.522 9.644672 3.726522 34.28956 47.625452
2004-04-20 07:40:47 51°10.736 2°42.485 9.644672 3.726522 34.28956 47.625452
2004-04-20 07:40:52 51°10.728 2°42.454 9.641984 3.726733 34.290942 46.445623
2004-04-20 07:40:57 51°10.721 2°42.423 9.640663 3.726522 34.292669 45.737725
2004-04-20 07:41:02 51°10.713 2°42.393 9.638777 3.726206 34.289428 44.659024
2004-04-20 07:41:07 51°10.706 2°42.362 9.639767 3.726522 34.295778 44.018546
2004-04-20 07:41:11 51°10.7 2°42.337 9.636466 3.726206 34.29487 42.838717
2004-04-20 07:41:17 51°10.691 2°42.3 9.636466 3.726206 34.29487 42.838717
2004-04-20 07:41:22 51°10.683 2°42.269 9.634202 3.726417 34.298586 42.0634
2004-04-20 07:41:26 51°10.678 2°42.245 9.63524 3.726417 34.300141 41.288084
2004-04-20 07:41:31 51°10.67 2°42.214 9.630146 3.726206 34.299536 40.479059
2004-04-20 07:41:37 51°10.662 2°42.176 9.6334 3.72589 34.29785 40.479059
2004-04-20 07:41:42 51°10.654 2°42.145 9.628825 3.726101 34.300788 40.074546
2004-04-20 07:41:46 51°10.649 2°42.121 9.628825 3.726101 34.300788 40.074546
2004-04-20 07:41:52 51°10.64 2°42.084 9.622362 3.726101 34.302344 40.37793
2004-04-20 07:41:57 51°10.632 2°42.053 9.619909 3.726417 34.305586 40.546477
2004-04-20 07:42:02 51°10.625 2°42.022 9.622787 3.726628 34.310081 40.108255
2004-04-20 07:42:07 51°10.617 2°41.991 9.617645 3.726312 34.308395 40.074546
2004-04-20 07:42:12 51°10.61 2°41.96 9.616371 3.725996 34.30671 39.703742
2004-04-20 07:42:17 51°10.602 2°41.929 9.616371 3.725996 34.30671 39.703742
2004-04-20 07:42:22 51°10.595 2°41.898 9.612455 3.725785 34.309217 39.905999
2004-04-20 07:42:26 51°10.589 2°41.874 9.607878 3.725785 34.309996 39.804871
2004-04-20 07:42:31 51°10.582 2°41.843 9.60802 3.72589 34.313412 39.535195
2004-04-20 07:42:37 51°10.573 2°41.806 9.605378 3.725469 34.310645 39.198101
2004-04-20 07:42:42 51°10.565 2°41.775 9.601178 3.725258 34.309261 38.72617
2004-04-20 07:42:47 51°10.558 2°41.744 9.601178 3.725258 34.309261 38.72617
2004-04-20 07:42:52 51°10.551 2°41.713 9.600376 3.72568 34.3167 40.344221
2004-04-20 07:42:57 51°10.544 2°41.682 9.600328 3.725258 34.31549 40.175674
2004-04-20 07:43:02 51°10.536 2°41.651 9.596034 3.725153 34.315966 39.973418
2004-04-20 07:43:06 51°10.531 2°41.626 9.598158 3.724837 34.316616 39.737452
2004-04-20 07:43:11 51°10.524 2°41.595 9.59089 3.724626 34.316012 39.636324
2004-04-20 07:43:17 51°10.515 2°41.558 9.59089 3.724626 34.316012 39.636324
2004-04-20 07:43:22 51°10.507 2°41.527 9.587822 3.724626 34.319128 39.467777
2004-04-20 07:43:27 51°10.5 2°41.496 9.588058 3.72431 34.316662 39.130683
2004-04-20 07:43:32 51°10.492 2°41.466 9.588483 3.72431 34.317441 39.063264
2004-04-20 07:43:37 51°10.484 2°41.435 9.583479 3.724099 34.317615 38.456494
2004-04-20 07:43:42 51°10.476 2°41.404 9.583621 3.723361 34.313939 38.085691
2004-04-20 07:43:47 51°10.469 2°41.374 9.583621 3.723361 34.313939 38.085691
2004-04-20 07:43:52 51°10.461 2°41.343 9.579561 3.723361 34.316277 37.647469
2004-04-20 07:43:57 51°10.454 2°41.312 9.579939 3.723256 34.317533 37.175537
2004-04-20 07:44:01 51°10.449 2°41.287 9.58093 3.723045 34.316928 37.141828
2004-04-20 07:44:06 51°10.442 2°41.256 9.576635 3.723045 34.317708 36.939571
2004-04-20 07:44:12 51°10.434 2°41.219 9.57451 3.722729 34.3168 36.669896
2004-04-20 07:44:17 51°10.427 2°41.188 9.57451 3.722729 34.3168 36.669896
2004-04-20 07:44:22 51°10.42 2°41.157 9.573141 3.722413 34.315113 36.703606
2004-04-20 07:44:27 51°10.413 2°41.126 9.572055 3.722413 34.315893 36.400221
2004-04-20 07:44:32 51°10.405 2°41.095 9.568892 3.722413 34.315893 36.602477
2004-04-20 07:44:36 51°10.399 2°41.07 9.567334 3.722097 34.315765 36.501349
2004-04-20 07:44:42 51°10.39 2°41.034 9.565965 3.721886 34.31438 36.669896
2004-04-20 07:44:46 51°10.385 2°41.009 9.565965 3.721886 34.31438 36.669896
2004-04-20 07:44:52 51°10.376 2°40.972 9.565446 3.721781 34.315636 37.074409
2004-04-20 07:44:57 51°10.368 2°40.941 9.563368 3.721675 34.316114 38.186819
2004-04-20 07:45:02 51°10.362 2°40.91 9.565068 3.721359 34.313647 38.389076
2004-04-20 07:45:07 51°10.354 2°40.879 9.563982 3.721149 34.313821 38.793589
2004-04-20 07:45:12 51°10.347 2°40.848 9.561196 3.721043 34.314298 38.962136
2004-04-20 07:45:16 51°10.341 2°40.824 9.561196 3.721043 34.314298 38.962136
2004-04-20 07:45:22 51°10.332 2°40.787 9.560204 3.720938 34.313216 38.759879
2004-04-20 07:45:26 51°10.326 2°40.762 9.560063 3.720938 34.314775 38.287947
2004-04-20 07:45:32 51°10.318 2°40.725 9.560488 3.720411 34.310143 37.917144
2004-04-20 07:45:37 51°10.31 2°40.694 9.559307 3.720727 34.31495 37.782306
2004-04-20 07:45:42 51°10.303 2°40.663 9.557985 3.720622 34.316207 37.478922
2004-04-20 07:45:47 51°10.296 2°40.632 9.557985 3.720622 34.316207 37.478922
2004-04-20 07:45:52 51°10.289 2°40.602 9.557796 3.720411 34.315602 37.917144
2004-04-20 07:45:57 51°10.282 2°40.571 9.55331 3.720306 34.31374 37.782306
2004-04-20 07:46:02 51°10.274 2°40.54 9.554349 3.720095 34.312355 37.849725
2004-04-20 07:46:07 51°10.267 2°40.509 9.551091 3.7202 34.313437 37.748597
2004-04-20 07:46:12 51°10.26 2°40.478 9.549107 3.720095 34.313134 37.681178
2004-04-20 07:46:17 51°10.253 2°40.447 9.549107 3.720095 34.313134 37.681178
2004-04-20 07:46:22 51°10.245 2°40.416 9.54736 3.719989 34.313612 37.276665
2004-04-20 07:46:26 51°10.239 2°40.391 9.546226 3.720411 34.317942 37.546341
2004-04-20 07:46:32 51°10.231 2°40.354 9.548162 3.719884 34.314869 37.175537
2004-04-20 07:46:37 51°10.224 2°40.323 9.54854 3.719779 34.314567 37.377794
2004-04-20 07:46:41 51°10.218 2°40.299 9.543109 3.719989 34.318293 36.939571
2004-04-20 07:46:47 51°10.209 2°40.262 9.543109 3.719989 34.318293 36.939571
2004-04-20 07:46:52 51°10.202 2°40.231 9.544148 3.719884 34.320331 36.332802
2004-04-20 07:46:57 51°10.194 2°40.2 9.54462 3.719673 34.319726 36.063127
2004-04-20 07:47:02 51°10.187 2°40.17 9.544006 3.719884 34.320331 35.220392
2004-04-20 07:47:06 51°10.182 2°40.145 9.542873 3.719884 34.321111 34.815879
2004-04-20 07:47:12 51°10.173 2°40.108 9.543817 3.719673 34.319726 33.939435
2004-04-20 07:47:17 51°10.166 2°40.077 9.543817 3.719673 34.319726 33.939435
2004-04-20 07:47:22 51°10.159 2°40.046 9.541409 3.71999 34.324536 34.040563
2004-04-20 07:47:27 51°10.152 2°40.016 9.543062 3.719779 34.323931 33.703469
2004-04-20 07:47:32 51°10.145 2°39.985 9.541834 3.719884 34.325014 33.602341
2004-04-20 07:47:37 51°10.137 2°39.954 9.543865 3.719779 34.323931 33.197828
2004-04-20 07:47:42 51°10.13 2°39.924 9.540936 3.719779 34.325492 32.658477
2004-04-20 07:47:46 51°10.124 2°39.899 9.540936 3.719779 34.325492 32.658477
2004-04-20 07:47:52 51°10.116 2°39.862 9.544337 3.719884 34.326575 32.658477
2004-04-20 07:47:57 51°10.109 2°39.831 9.543392 3.719884 34.326575 32.860734
2004-04-20 07:48:02 51°10.102 2°39.8 9.543109 3.71999 34.328439 33.164118
2004-04-20 07:48:07 51°10.095 2°39.769 9.547643 3.719463 34.322243 33.602341
2004-04-20 07:48:12 51°10.087 2°39.738 9.547926 3.719463 34.321462 33.973144
2004-04-20 07:48:17 51°10.08 2°39.707 9.547926 3.719463 34.321462 33.973144
2004-04-20 07:48:22 51°10.073 2°39.676 9.548729 3.719779 34.323931 33.770888
2004-04-20 07:48:27 51°10.065 2°39.646 9.549154 3.719884 34.325014 33.973144
2004-04-20 07:48:32 51°10.058 2°39.615 9.548588 3.719463 34.320682 34.107982
2004-04-20 07:48:37 51°10.05 2°39.584 9.552602 3.719568 34.320204 34.310238
2004-04-20 07:48:41 51°10.045 2°39.559 9.554302 3.719463 34.31756 34.681042
2004-04-20 07:48:46 51°10.038 2°39.528 9.554302 3.719463 34.31756 34.681042
2004-04-20 07:48:52 51°10.029 2°39.491 9.558032 3.719041 34.314009 35.085554
2004-04-20 07:48:57 51°10.022 2°39.46 9.557513 3.719146 34.314311 35.759742
2004-04-20 07:49:02 51°10.015 2°39.429 9.556805 3.719041 34.312448 36.568768
2004-04-20 07:49:06 51°10.009 2°39.405 9.560441 3.718409 34.305171 36.872153
2004-04-20 07:49:12 51°10 2°39.367 9.559874 3.718936 34.309025 37.141828
2004-04-20 07:49:17 51°9.993 2°39.336 9.559874 3.718936 34.309025 37.141828
2004-04-20 07:49:21 51°9.987 2°39.312 9.559307 3.71883 34.305602 37.209247
2004-04-20 07:49:26 51°9.98 2°39.281 9.559024 3.718409 34.299712 38.557623
2004-04-20 07:49:32 51°9.971 2°39.243 9.55978 3.718409 34.298932 39.096973
2004-04-20 07:49:37 51°9.964 2°39.212 9.558268 3.718198 34.296767 40.108255
2004-04-20 07:49:42 51°9.957 2°39.181 9.559591 3.717987 34.293822 40.546477
2004-04-20 07:49:46 51°9.951 2°39.156 9.559591 3.717987 34.293822 40.546477
2004-04-20 07:49:52 51°9.943 2°39.119 9.557182 3.717566 34.289492 40.95099
2004-04-20 07:49:57 51°9.935 2°39.088 9.557985 3.71746 34.28685 40.883571
2004-04-20 07:50:02 51°9.928 2°39.057 9.556994 3.717566 34.287154 40.816153
2004-04-20 07:50:06 51°9.922 2°39.032 9.553027 3.717249 34.284685 40.41164
2004-04-20 07:50:12 51°9.914 2°38.994 9.552177 3.717249 34.285465 40.141965
2004-04-20 07:50:17 51°9.907 2°38.963 9.552177 3.717249 34.285465 40.141965
2004-04-20 07:50:22 51°9.899 2°38.932 9.55024 3.717249 34.284685 39.366648
2004-04-20 07:50:27 51°9.892 2°38.901 9.548729 3.716828 34.281914 39.130683
2004-04-20 07:50:32 51°9.885 2°38.87 9.546321 3.716828 34.282693 38.861007
2004-04-20 07:50:37 51°9.878 2°38.839 9.546084 3.716828 34.283473 38.456494
2004-04-20 07:50:42 51°9.871 2°38.808 9.542731 3.716617 34.282866 38.490204
2004-04-20 07:50:47 51°9.863 2°38.777 9.542731 3.716617 34.282866 38.490204
2004-04-20 07:50:52 51°9.856 2°38.746 9.543534 3.716512 34.284122 38.018272
2004-04-20 07:50:56 51°9.851 2°38.721 9.545612 3.716301 34.284295 38.018272
2004-04-20 07:51:01 51°9.844 2°38.69 9.54155 3.715985 34.282606 38.15311
2004-04-20 07:51:07 51°9.835 2°38.652 9.542117 3.716196 34.284772 38.557623
2004-04-20 07:51:12 51°9.828 2°38.621 9.542542 3.715879 34.282303 38.625042
2004-04-20 07:51:17 51°9.82 2°38.59 9.542542 3.715879 34.282303 38.625042
2004-04-20 07:51:22 51°9.813 2°38.56 9.540983 3.715774 34.282 38.827298
2004-04-20 07:51:26 51°9.807 2°38.535 9.539661 3.715669 34.282476 39.231811
2004-04-20 07:51:32 51°9.798 2°38.497 9.541314 3.715458 34.28109 39.130683
2004-04-20 07:51:37 51°9.791 2°38.466 9.542259 3.715563 34.282173 39.670033
2004-04-20 07:51:42 51°9.784 2°38.435 9.542825 3.715458 34.282649 40.141965
2004-04-20 07:51:46 51°9.778 2°38.41 9.542825 3.715458 34.282649 40.141965
2004-04-20 07:51:52 51°9.77 2°38.373 9.54429 3.715142 34.278621 40.41164
2004-04-20 07:51:57 51°9.762 2°38.341 9.543298 3.714931 34.277235 40.816153
2004-04-20 07:52:01 51°9.756 2°38.317 9.543817 3.715036 34.278318 40.917281
2004-04-20 07:52:06 51°9.749 2°38.285 9.546179 3.714931 34.277235 41.254375
2004-04-20 07:52:12 51°9.74 2°38.248 9.546226 3.714931 34.276455 41.052118
2004-04-20 07:52:17 51°9.733 2°38.217 9.546226 3.714931 34.276455 41.052118
2004-04-20 07:52:22 51°9.726 2°38.186 9.545895 3.714615 34.273207 41.085828
2004-04-20 07:52:27 51°9.719 2°38.154 9.547737 3.714615 34.273207 41.085828
2004-04-20 07:52:32 51°9.712 2°38.123 9.549201 3.714615 34.270868 41.186956
2004-04-20 07:52:37 51°9.704 2°38.092 9.548162 3.714509 34.270565 41.153247
2004-04-20 07:52:42 51°9.697 2°38.061 9.546604 3.714404 34.267144 41.186956
2004-04-20 07:52:46 51°9.691 2°38.036 9.546604 3.714404 34.267144 41.186956
2004-04-20 07:52:52 51°9.682 2°37.999 9.547785 3.714615 34.26931 41.456631
2004-04-20 07:52:57 51°9.675 2°37.968 9.547643 3.714193 34.2642 41.422922
2004-04-20 07:53:02 51°9.667 2°37.937 9.547218 3.714193 34.263421 41.52405
2004-04-20 07:53:06 51°9.662 2°37.912 9.550099 3.714193 34.263421 41.625178
2004-04-20 07:53:12 51°9.653 2°37.874 9.547218 3.713666 34.258786 41.928563
2004-04-20 07:53:17 51°9.646 2°37.843 9.547218 3.713666 34.258786 41.928563
2004-04-20 07:53:22 51°9.638 2°37.812 9.545754 3.713561 34.257704 42.67017
2004-04-20 07:53:26 51°9.633 2°37.787 9.545329 3.712823 34.250904 43.378067
2004-04-20 07:53:32 51°9.624 2°37.75 9.544479 3.712612 34.247181 43.849999
2004-04-20 07:53:37 51°9.617 2°37.719 9.545659 3.712086 34.241768 44.35564
2004-04-20 07:53:42 51°9.61 2°37.688 9.544006 3.711559 34.237134 45.299503
2004-04-20 07:53:46 51°9.604 2°37.663 9.544006 3.711559 34.237134 45.299503
2004-04-20 07:53:52 51°9.595 2°37.625 9.544526 3.710926 34.229861 46.074819
2004-04-20 07:53:56 51°9.589 2°37.6 9.546321 3.710294 34.2257 47.625452
2004-04-20 07:54:01 51°9.582 2°37.569 9.548965 3.709872 34.22137 49.041247
2004-04-20 07:54:07 51°9.574 2°37.532 9.548115 3.70924 34.214875 50.693007
2004-04-20 07:54:12 51°9.566 2°37.501 9.548729 3.709029 34.211932 52.445896
2004-04-20 07:54:17 51°9.559 2°37.469 9.548729 3.709029 34.211932 52.445896
2004-04-20 07:54:22 51°9.551 2°37.438 9.549863 3.708608 34.209158 53.693144
2004-04-20 07:54:26 51°9.545 2°37.413 9.54939 3.708397 34.206215 55.243777
2004-04-20 07:54:31 51°9.538 2°37.382 9.549296 3.707975 34.201108 56.929247
2004-04-20 07:54:37 51°9.53 2°37.344 9.548871 3.707554 34.196001 58.648426
2004-04-20 07:54:42 51°9.522 2°37.313 9.549674 3.707449 34.194141 60.502443
2004-04-20 07:54:47 51°9.515 2°37.282 9.549674 3.707449 34.194141 60.502443
2004-04-20 07:54:52 51°9.507 2°37.25 9.550666 3.707027 34.189034 62.727264
2004-04-20 07:54:57 51°9.5 2°37.219 9.550571 3.707132 34.189339 64.716118
2004-04-20 07:55:02 51°9.493 2°37.188 9.549201 3.706922 34.188729 66.806101
2004-04-20 07:55:06 51°9.487 2°37.163 9.552177 3.706711 34.18501 68.188187
2004-04-20 07:55:12 51°9.478 2°37.125 9.551091 3.7065 34.182846 68.390443
2004-04-20 07:55:17 51°9.471 2°37.093 9.551091 3.7065 34.182846 68.390443
2004-04-20 07:55:22 51°9.463 2°37.062 9.549532 3.706289 34.180681 68.154477
2004-04-20 07:55:27 51°9.456 2°37.03 9.551091 3.706289 34.181458 68.120768
2004-04-20 07:55:32 51°9.45 2°36.999 9.548115 3.706184 34.180376 68.087059
2004-04-20 07:55:37 51°9.443 2°36.967 9.550571 3.706184 34.178822 68.087059
2004-04-20 07:55:42 51°9.437 2°36.935 9.54854 3.705973 34.176657 68.120768
2004-04-20 07:55:46 51°9.432 2°36.909 9.54854 3.705973 34.176657 68.120768
2004-04-20 07:55:51 51°9.425 2°36.877 9.545518 3.7065 34.182846 68.255606
2004-04-20 07:55:57 51°9.417 2°36.84 9.54462 3.706395 34.181763 68.255606
2004-04-20 07:56:02 51°9.41 2°36.808 9.542306 3.706289 34.181458 66.974648
2004-04-20 07:56:07 51°9.403 2°36.777 9.542259 3.706289 34.180681 65.997076
2004-04-20 07:56:12 51°9.396 2°36.748 9.543014 3.706184 34.181153 64.008221
2004-04-20 07:56:17 51°9.389 2°36.721 9.543014 3.706184 34.181153 64.008221
2004-04-20 07:56:22 51°9.382 2°36.697 9.542164 3.706184 34.182708 62.558717
2004-04-20 07:56:26 51°9.377 2°36.679 9.540039 3.706289 34.186122 61.176631
2004-04-20 07:56:31 51°9.37 2°36.657 9.540228 3.706816 34.192312 59.592289
2004-04-20 07:56:37 51°9.361 2°36.635 9.538102 3.706289 34.186899 58.109076
2004-04-20 07:56:42 51°9.354 2°36.618 9.535835 3.706711 34.192007 56.625862
2004-04-20 07:56:47 51°9.346 2°36.602 9.535835 3.706711 34.192007 56.625862
2004-04-20 07:56:52 51°9.339 2°36.588 9.535646 3.706289 34.189232 54.906683
2004-04-20 07:56:57 51°9.331 2°36.576 9.535551 3.706711 34.193562 52.78299
2004-04-20 07:57:02 51°9.324 2°36.564 9.537488 3.706922 34.196505 51.603161
2004-04-20 07:57:06 51°9.318 2°36.556 9.535929 3.707027 34.199143 49.9514
2004-04-20 07:57:12 51°9.309 2°36.544 9.53626 3.707132 34.201003 48.501896
2004-04-20 07:57:17 51°9.302 2°36.535 9.53626 3.707132 34.201003 48.501896
2004-04-20 07:57:22 51°9.295 2°36.527 9.538952 3.706816 34.200089 46.647879
2004-04-20 07:57:27 51°9.288 2°36.519 9.538386 3.707027 34.202255 44.962409
2004-04-20 07:57:30 51°9.284 2°36.515 9.538386 3.707027 34.202255 43.24323
2004-04-20 07:57:37 51°9.274 2°36.505 9.538008 3.703655 34.167611 41.085828
2004-04-20 07:57:42 51°9.268 2°36.499 9.537771 3.707238 34.20442 38.557623
2004-04-20 07:57:47 51°9.262 2°36.493 9.537771 3.707238 34.20442 38.557623
2004-04-20 07:57:52 51°9.255 2°36.487 9.536968 3.707238 34.202864 36.872153
2004-04-20 07:57:57 51°9.249 2°36.48 9.538716 3.707449 34.205807 35.591195
2004-04-20 07:58:01 51°9.244 2°36.474 9.540322 3.707659 34.206417 33.905725
2004-04-20 07:58:06 51°9.239 2°36.467 9.542495 3.707659 34.206417 32.624768
2004-04-20 07:58:12 51°9.232 2°36.457 9.543534 3.707765 34.208277 31.613486
2004-04-20 07:58:17 51°9.228 2°36.449 9.543534 3.707765 34.208277 31.613486
2004-04-20 07:58:22 51°9.223 2°36.441 9.545093 3.707659 34.205639 30.568494
2004-04-20 07:58:27 51°9.219 2°36.434 9.547785 3.70787 34.207804 30.130272
2004-04-20 07:58:32 51°9.216 2°36.426 9.547312 3.708081 34.208413 29.287537
2004-04-20 07:58:37 51°9.213 2°36.42 9.549674 3.707976 34.205775 28.680768
2004-04-20 07:58:42 51°9.211 2°36.414 9.548115 3.708292 34.207466 28.343674
2004-04-20 07:58:46 51°9.209 2°36.41 9.548115 3.708292 34.207466 28.343674
2004-04-20 07:58:52 51°9.207 2°36.404 9.547879 3.708397 34.207771 27.838033
2004-04-20 07:58:57 51°9.206 2°36.4 9.548871 3.708292 34.206689 27.838033
2004-04-20 07:59:02 51°9.204 2°36.397 9.549438 3.708502 34.207298 28.208836
2004-04-20 07:59:07 51°9.204 2°36.394 9.553357 3.708397 34.203882 28.916734
2004-04-20 07:59:12 51°9.203 2°36.392 9.555577 3.706184 34.18193 29.624631
2004-04-20 07:59:17 51°9.202 2°36.39 9.555577 3.706184 34.18193 29.624631
2004-04-20 07:59:21 51°9.201 2°36.388 9.553877 3.706816 34.188424 29.894306
2004-04-20 07:59:27 51°9.2 2°36.385 9.553216 3.708081 34.199857 30.332529
2004-04-20 07:59:32 51°9.199 2°36.382 9.552318 3.707975 34.19722 30.467366
2004-04-20 07:59:37 51°9.198 2°36.38 9.553641 3.708186 34.198607 30.568494
2004-04-20 07:59:42 51°9.198 2°36.377 9.550666 3.708186 34.197829 30.737042
2004-04-20 07:59:47 51°9.197 2°36.375 9.550666 3.708186 34.197829 30.737042
2004-04-20 07:59:52 51°9.196 2°36.372 9.548399 3.707975 34.195665 30.534785
2004-04-20 07:59:57 51°9.195 2°36.37 9.548257 3.707975 34.194887 31.175264
2004-04-20 08:00:02 51°9.194 2°36.367 9.550004 3.708081 34.196747 31.546067
2004-04-20 08:00:07 51°9.193 2°36.365 9.546935 3.707975 34.196442 32.793315
2004-04-20 08:00:12 51°9.193 2°36.362 9.547737 3.706816 34.183761 34.20911
2004-04-20 08:00:17 51°9.192 2°36.359 9.547737 3.706816 34.183761 34.20911
2004-04-20 08:00:22 51°9.191 2°36.357 9.547029 3.707659 34.193973 34.917007
2004-04-20 08:00:27 51°9.19 2°36.354 9.549721 3.707132 34.190894 35.961999
2004-04-20 08:00:32 51°9.189 2°36.351 9.547218 3.707343 34.193058 37.0407
2004-04-20 08:00:37 51°9.189 2°36.348 9.547265 3.706922 34.189507 38.051982
2004-04-20 08:00:42 51°9.188 2°36.346 9.544242 3.707027 34.190589 38.928426
2004-04-20 08:00:48 51°9.187 2°36.343 9.544242 3.707027 34.190589 38.928426
2004-04-20 08:00:52 51°9.186 2°36.341 9.546746 3.708081 34.201413 39.400358
2004-04-20 08:00:57 51°9.185 2°36.338 9.54155 3.708502 34.205742 40.243093
2004-04-20 08:01:02 51°9.185 2°36.335 9.541597 3.708081 34.199857 40.816153
2004-04-20 08:01:06 51°9.184 2°36.333 9.543581 3.708292 34.203577 41.389212
2004-04-20 08:01:12 51°9.183 2°36.33 9.542353 3.708292 34.204355 41.321794
2004-04-20 08:01:17 51°9.182 2°36.327 9.542353 3.708292 34.204355 41.321794
2004-04-20 08:01:22 51°9.181 2°36.324 9.538055 3.708186 34.203273 42.0634
2004-04-20 08:01:26 51°9.181 2°36.322 9.539472 3.708081 34.202968 42.973554
2004-04-20 08:01:32 51°9.18 2°36.319 9.540511 3.708186 34.205606 43.411777
2004-04-20 08:01:37 51°9.179 2°36.316 9.539803 3.708081 34.205301 43.883708
2004-04-20 08:01:42 51°9.178 2°36.313 9.541314 3.707765 34.202832 44.187093
2004-04-20 08:01:46 51°9.177 2°36.311 9.541314 3.707765 34.202832 44.187093
2004-04-20 08:01:52 51°9.177 2°36.308 9.542117 3.707976 34.205775 44.591606
2004-04-20 08:01:57 51°9.176 2°36.305 9.538527 3.70787 34.204692 45.838853
2004-04-20 08:02:02 51°9.175 2°36.302 9.539047 3.707976 34.205775 45.602888
2004-04-20 08:02:07 51°9.174 2°36.299 9.541456 3.70787 34.204692 45.973691
2004-04-20 08:02:12 51°9.173 2°36.296 9.542023 3.707765 34.20361 46.209657
2004-04-20 08:02:17 51°9.173 2°36.293 9.542023 3.707765 34.20361 46.209657
2004-04-20 08:02:21 51°9.172 2°36.291 9.537819 3.707976 34.207331 46.310785
2004-04-20 08:02:27 51°9.171 2°36.288 9.536827 3.707659 34.204083 46.61417
2004-04-20 08:02:32 51°9.17 2°36.285 9.536685 3.707659 34.203305 46.513042
2004-04-20 08:02:37 51°9.169 2°36.282 9.538055 3.707765 34.204387 47.322067
2004-04-20 08:02:42 51°9.168 2°36.279 9.537157 3.707659 34.202527 47.490614
2004-04-20 08:02:46 51°9.168 2°36.277 9.537157 3.707659 34.202527 47.490614
2004-04-20 08:02:52 51°9.167 2°36.273 9.536165 3.707765 34.205165 47.659161
2004-04-20 08:02:56 51°9.166 2°36.271 9.534418 3.707659 34.204861 48.603024
2004-04-20 08:03:02 51°9.165 2°36.267 9.53796 3.70787 34.207026 48.367059
2004-04-20 08:03:07 51°9.165 2°36.264 9.537252 3.707976 34.208109 47.962546
2004-04-20 08:03:12 51°9.164 2°36.261 9.540889 3.707765 34.206721 48.434477
2004-04-20 08:03:17 51°9.163 2°36.258 9.540889 3.707765 34.206721 48.434477
2004-04-20 08:03:21 51°9.163 2°36.256 9.536921 3.707449 34.203473 48.83899
2004-04-20 08:03:26 51°9.162 2°36.253 9.538669 3.707765 34.208277 48.737862
2004-04-20 08:03:32 51°9.161 2°36.249 9.537677 3.707449 34.204251 48.83899
2004-04-20 08:03:37 51°9.161 2°36.246 9.537299 3.70787 34.207804 48.771571
2004-04-20 08:03:42 51°9.16 2°36.243 9.537346 3.707554 34.203 49.749144
2004-04-20 08:03:47 51°9.159 2°36.24 9.537346 3.707554 34.203 49.749144
2004-04-20 08:03:52 51°9.159 2°36.237 9.540039 3.707765 34.205943 49.883982
2004-04-20 08:03:57 51°9.158 2°36.234 9.539803 3.707238 34.201308 49.917691
2004-04-20 08:04:01 51°9.158 2°36.231 9.539283 3.707554 34.203778 49.681725
2004-04-20 08:04:06 51°9.157 2°36.228 9.541597 3.707343 34.201613 49.243503
2004-04-20 08:04:12 51°9.156 2°36.224 9.541267 3.707659 34.206417 49.344631
2004-04-20 08:04:17 51°9.156 2°36.221 9.541267 3.707659 34.206417 49.344631
2004-04-20 08:04:22 51°9.155 2°36.218 9.542778 3.707554 34.203778 49.142375
2004-04-20 08:04:26 51°9.154 2°36.216 9.5424 3.707343 34.200835 48.8727
2004-04-20 08:04:32 51°9.153 2°36.212 9.540842 3.70787 34.206248 48.973828
2004-04-20 08:04:37 51°9.153 2°36.209 9.541786 3.707765 34.205165 49.546888
2004-04-20 08:04:42 51°9.152 2°36.206 9.546557 3.707238 34.198975 49.479469
2004-04-20 08:04:47 51°9.151 2°36.203 9.546557 3.707238 34.198975 49.479469
2004-04-20 08:04:52 51°9.151 2°36.2 9.545565 3.707027 34.197587 49.9514
2004-04-20 08:04:57 51°9.15 2°36.196 9.542589 3.70787 34.204692 49.883982
2004-04-20 08:05:02 51°9.149 2°36.193 9.545612 3.707765 34.202832 49.715435
2004-04-20 08:05:06 51°9.149 2°36.191 9.546226 3.707659 34.203305 50.187366
2004-04-20 08:05:12 51°9.148 2°36.187 9.545187 3.707659 34.201749 50.018819
2004-04-20 08:05:17 51°9.147 2°36.183 9.545187 3.707659 34.201749 50.018819
2004-04-20 08:05:22 51°9.147 2°36.18 9.54462 3.707554 34.199111 50.423332
2004-04-20 08:05:27 51°9.146 2°36.177 9.545754 3.707659 34.200971 50.591879
2004-04-20 08:05:31 51°9.145 2°36.174 9.546793 3.70787 34.202359 51.198648
2004-04-20 08:05:37 51°9.145 2°36.171 9.546037 3.707765 34.199721 50.928973
2004-04-20 08:05:42 51°9.144 2°36.167 9.546651 3.70787 34.200025 51.13123
2004-04-20 08:05:46 51°9.144 2°36.165 9.546651 3.70787 34.200025 51.13123
2004-04-20 08:05:52 51°9.143 2°36.161 9.546793 3.707765 34.198943 51.198648
2004-04-20 08:05:57 51°9.142 2°36.158 9.548257 3.707975 34.201108 50.794136
2004-04-20 08:06:02 51°9.141 2°36.154 9.548162 3.708186 34.202495 50.389623
2004-04-20 08:06:06 51°9.141 2°36.152 9.547737 3.708292 34.203577 50.726717
2004-04-20 08:06:12 51°9.14 2°36.148 9.549579 3.708397 34.203882 51.266067
2004-04-20 08:06:17 51°9.139 2°36.144 9.549579 3.708397 34.203882 51.266067
2004-04-20 08:06:22 51°9.138 2°36.141 9.547785 3.708292 34.203577 51.839127
2004-04-20 08:06:26 51°9.138 2°36.138 9.546887 3.708186 34.202495 50.861554
2004-04-20 08:06:32 51°9.137 2°36.134 9.55024 3.708502 34.204187 51.164939
2004-04-20 08:06:37 51°9.136 2°36.129 9.550854 3.708502 34.203409 51.400905
2004-04-20 08:06:42 51°9.136 2°36.123 9.548965 3.708713 34.204796 51.434614
2004-04-20 08:06:47 51°9.135 2°36.117 9.548965 3.708713 34.204796 51.434614
2004-04-20 08:06:52 51°9.134 2°36.111 9.549674 3.708819 34.205878 51.09752
2004-04-20 08:06:57 51°9.133 2°36.104 9.547879 3.708397 34.202327 51.09752
2004-04-20 08:07:01 51°9.132 2°36.098 9.548682 3.708292 34.202022 51.299777
2004-04-20 08:07:06 51°9.131 2°36.09 9.547218 3.708292 34.201244 51.232358
2004-04-20 08:07:12 51°9.129 2°36.08 9.550666 3.708502 34.203409 51.299777
2004-04-20 08:07:17 51°9.126 2°36.072 9.550666 3.708502 34.203409 51.299777
2004-04-20 08:07:21 51°9.124 2°36.066 9.549863 3.708608 34.204491 51.400905
2004-04-20 08:07:27 51°9.121 2°36.057 9.548965 3.708608 34.205269 51.940255
2004-04-20 08:07:32 51°9.118 2°36.05 9.551138 3.708502 34.203409 51.940255
2004-04-20 08:07:37 51°9.116 2°36.043 9.54854 3.708713 34.206351 51.872836
2004-04-20 08:07:42 51°9.113 2°36.037 9.545754 3.708819 34.206656 51.468324
2004-04-20 08:07:47 51°9.11 2°36.03 9.545754 3.708819 34.206656 51.468324
2004-04-20 08:07:52 51°9.108 2°36.024 9.546887 3.708819 34.205878 52.311059
2004-04-20 08:07:57 51°9.105 2°36.017 9.545801 3.70924 34.210985 52.614443
2004-04-20 08:08:01 51°9.103 2°36.012 9.545329 3.70924 34.20943 52.749281
2004-04-20 08:08:06 51°9.1 2°36.006 9.545612 3.709345 34.21129 53.018956
2004-04-20 08:08:12 51°9.097 2°35.998 9.547171 3.709345 34.213624 52.648153
2004-04-20 08:08:17 51°9.095 2°35.992 9.547171 3.709345 34.213624 52.648153
2004-04-20 08:08:22 51°9.092 2°35.986 9.549721 3.708924 34.210072 53.389759
2004-04-20 08:08:27 51°9.089 2°35.98 9.551893 3.709029 34.211154 52.917828
2004-04-20 08:08:32 51°9.087 2°35.973 9.551752 3.70924 34.214097 52.20993
2004-04-20 08:08:37 51°9.084 2°35.967 9.553074 3.709029 34.211932 51.636871
2004-04-20 08:08:41 51°9.081 2°35.961 9.55331 3.709029 34.210376 50.322204
2004-04-20 08:08:47 51°9.078 2°35.953 9.55331 3.709029 34.210376 50.322204
2004-04-20 08:08:52 51°9.075 2°35.946 9.555955 3.709029 34.208821 49.715435
2004-04-20 08:08:57 51°9.072 2°35.939 9.558882 3.70924 34.210208 48.063674
2004-04-20 08:09:02 51°9.069 2°35.931 9.558505 3.70924 34.208652 47.423195
2004-04-20 08:09:06 51°9.067 2°35.925 9.560157 3.709451 34.209261 46.411913
2004-04-20 08:09:12 51°9.063 2°35.916 9.557985 3.70924 34.206319 45.400631
2004-04-20 08:09:17 51°9.06 2°35.908 9.557985 3.70924 34.206319 45.400631
2004-04-20 08:09:21 51°9.057 2°35.902 9.558835 3.709451 34.206928 44.591606
2004-04-20 08:09:26 51°9.054 2°35.894 9.558741 3.709451 34.205373 43.344358
2004-04-20 08:09:32 51°9.051 2°35.884 9.55638 3.709661 34.20676 42.535332
2004-04-20 08:09:37 51°9.048 2°35.876 9.558221 3.709556 34.2049 41.254375
2004-04-20 08:09:42 51°9.045 2°35.867 9.560204 3.709556 34.2049 41.153247
2004-04-20 08:09:46 51°9.042 2°35.86 9.560204 3.709556 34.2049 41.153247
2004-04-20 08:09:52 51°9.038 2°35.85 9.557843 3.709767 34.207064 40.37793
2004-04-20 08:09:57 51°9.035 2°35.841 9.558268 3.709767 34.206287 40.243093
2004-04-20 08:10:02 51°9.032 2°35.832 9.555246 3.709556 34.205678 39.771161
2004-04-20 08:10:06 51°9.03 2°35.825 9.554869 3.709556 34.207233 39.130683
2004-04-20 08:10:12 51°9.026 2°35.814 9.554538 3.709767 34.207064 39.703742
2004-04-20 08:10:17 51°9.023 2°35.805 9.554538 3.709767 34.207064 39.703742
2004-04-20 08:10:22 51°9.02 2°35.796 9.553168 3.709661 34.205982 39.332939
2004-04-20 08:10:26 51°9.018 2°35.789 9.555435 3.709451 34.203818 40.040836
2004-04-20 08:10:32 51°9.015 2°35.778 9.554066 3.709662 34.207537 40.715024
2004-04-20 08:10:37 51°9.012 2°35.768 9.550949 3.709662 34.20987 40.512768
2004-04-20 08:10:42 51°9.009 2°35.759 9.55024 3.709451 34.206928 40.243093
2004-04-20 08:10:47 51°9.007 2°35.75 9.55024 3.709451 34.206928 40.243093
2004-04-20 08:10:52 51°9.004 2°35.74 9.54854 3.709345 34.206624 40.209383
2004-04-20 08:10:56 51°9.002 2°35.733 9.547171 3.709451 34.208483 40.479059
2004-04-20 08:11:01 51°8.999 2°35.724 9.546793 3.709556 34.208788 40.512768
2004-04-20 08:11:07 51°8.996 2°35.712 9.548965 3.709345 34.208957 41.321794
2004-04-20 08:11:12 51°8.994 2°35.703 9.546793 3.709451 34.210039 41.422922
2004-04-20 08:11:17 51°8.991 2°35.694 9.546793 3.709451 34.210039 41.422922
2004-04-20 08:11:21 51°8.99 2°35.687 9.54547 3.709451 34.211594 41.995982
2004-04-20 08:11:26 51°8.987 2°35.678 9.544668 3.709451 34.212372 42.0634
2004-04-20 08:11:32 51°8.985 2°35.668 9.544006 3.709345 34.212068 41.827435
2004-04-20 08:11:36 51°8.983 2°35.661 9.546368 3.709345 34.212068 42.569042
2004-04-20 08:11:42 51°8.98 2°35.651 9.543534 3.70924 34.212541 42.164529
2004-04-20 08:11:46 51°8.978 2°35.644 9.543534 3.70924 34.212541 42.164529
2004-04-20 08:11:52 51°8.976 2°35.634 9.542684 3.709451 34.215484 42.299366
2004-04-20 08:11:57 51°8.974 2°35.625 9.543345 3.709345 34.214402 42.164529
2004-04-20 08:12:01 51°8.972 2°35.619 9.544998 3.709451 34.215484 41.625178
2004-04-20 08:12:06 51°8.97 2°35.61 9.543392 3.709556 34.216566 41.962272
2004-04-20 08:12:12 51°8.968 2°35.601 9.544809 3.709345 34.215958 42.0634
2004-04-20 08:12:17 51°8.966 2°35.593 9.544809 3.709345 34.215958 42.0634
2004-04-20 08:12:22 51°8.964 2°35.585 9.54462 3.709451 34.216262 42.198238
2004-04-20 08:12:27 51°8.962 2°35.577 9.544951 3.709451 34.21704 41.962272
2004-04-20 08:12:32 51°8.961 2°35.569 9.544809 3.709451 34.217818 41.692597
2004-04-20 08:12:37 51°8.959 2°35.561 9.546179 3.709556 34.218123 41.288084
2004-04-20 08:12:41 51°8.958 2°35.555 9.547123 3.709556 34.217345 40.849862
2004-04-20 08:12:46 51°8.956 2°35.547 9.547123 3.709556 34.217345 40.849862
2004-04-20 08:12:52 51°8.954 2°35.538 9.547737 3.709662 34.219205 40.917281
2004-04-20 08:12:57 51°8.952 2°35.53 9.546321 3.709556 34.218123 40.580187
2004-04-20 08:13:02 51°8.951 2°35.523 9.545895 3.709662 34.217649 40.175674
2004-04-20 08:13:06 51°8.949 2°35.517 9.547879 3.709556 34.216566 39.973418
2004-04-20 08:13:12 51°8.947 2°35.508 9.547926 3.709872 34.218258 39.434067
2004-04-20 08:13:17 51°8.946 2°35.5 9.547926 3.709872 34.218258 39.434067
2004-04-20 08:13:21 51°8.945 2°35.494 9.545895 3.709767 34.217953 39.164392
2004-04-20 08:13:26 51°8.943 2°35.487 9.54736 3.709872 34.218258 38.456494
2004-04-20 08:13:32 51°8.941 2°35.478 9.54736 3.709872 34.218258 38.72617
2004-04-20 08:13:37 51°8.94 2°35.471 9.548871 3.710294 34.222587 38.625042
2004-04-20 08:13:42 51°8.938 2°35.464 9.54939 3.710399 34.22367 38.220529
2004-04-20 08:13:47 51°8.937 2°35.457 9.54939 3.710399 34.22367 38.220529
2004-04-20 08:13:52 51°8.935 2°35.449 9.550099 3.709978 34.220118 38.018272
2004-04-20 08:13:57 51°8.933 2°35.442 9.549674 3.710294 34.222587 38.186819
2004-04-20 08:14:01 51°8.932 2°35.437 9.550949 3.710294 34.222587 37.647469
2004-04-20 08:14:07 51°8.93 2°35.428 9.550666 3.710399 34.222892 37.512631
2004-04-20 08:14:12 51°8.929 2°35.421 9.552507 3.710399 34.221336 37.0407
2004-04-20 08:14:17 51°8.927 2°35.414 9.552507 3.710399 34.221336 37.0407
2004-04-20 08:14:22 51°8.925 2°35.407 9.553027 3.710505 34.222418 36.535059
2004-04-20 08:14:26 51°8.924 2°35.402 9.554396 3.710715 34.223805 36.366512
2004-04-20 08:14:31 51°8.923 2°35.395 9.55553 3.710821 34.224887 35.692324
2004-04-20 08:14:37 51°8.921 2°35.387 9.554632 3.710715 34.223805 35.591195
2004-04-20 08:14:42 51°8.919 2°35.38 9.554869 3.710715 34.222249 34.78217
2004-04-20 08:14:46 51°8.918 2°35.375 9.554869 3.710715 34.222249 34.78217
2004-04-20 08:14:51 51°8.916 2°35.368 9.556285 3.710926 34.224413 34.512494
2004-04-20 08:14:57 51°8.914 2°35.36 9.55586 3.710926 34.222857 34.107982
2004-04-20 08:15:02 51°8.912 2°35.353 9.557182 3.710926 34.221301 34.141691
2004-04-20 08:15:07 51°8.91 2°35.346 9.556616 3.711242 34.226104 33.838306
2004-04-20 08:15:12 51°8.909 2°35.34 9.557938 3.711348 34.226408 33.400084
2004-04-20 08:15:17 51°8.907 2°35.333 9.557938 3.711348 34.226408 33.400084
2004-04-20 08:15:21 51°8.906 2°35.328 9.557749 3.711242 34.22377 33.231537
2004-04-20 08:15:26 51°8.904 2°35.321 9.558221 3.711558 34.227017 33.029281
2004-04-20 08:15:32 51°8.901 2°35.313 9.558127 3.711664 34.228099 32.928153
2004-04-20 08:15:37 51°8.9 2°35.307 9.560204 3.711664 34.227321 32.995571
2004-04-20 08:15:41 51°8.898 2°35.301 9.560629 3.711769 34.227625 32.995571
2004-04-20 08:15:47 51°8.896 2°35.293 9.560629 3.711769 34.227625 32.995571
2004-04-20 08:15:52 51°8.894 2°35.287 9.561149 3.711875 34.227929 32.827024
2004-04-20 08:15:56 51°8.893 2°35.282 9.562235 3.711875 34.228707 32.692187
2004-04-20 08:16:02 51°8.891 2°35.274 9.564454 3.711875 34.228707 32.422512
2004-04-20 08:16:06 51°8.889 2°35.269 9.564926 3.712085 34.229316 32.725896
2004-04-20 08:16:12 51°8.887 2°35.261 9.564265 3.712085 34.228538 31.984289
2004-04-20 08:16:17 51°8.885 2°35.254 9.564265 3.712085 34.228538 31.984289
2004-04-20 08:16:22 51°8.883 2°35.248 9.564124 3.712085 34.226982 31.95058
2004-04-20 08:16:26 51°8.881 2°35.243 9.565257 3.712507 34.230532 31.95058
2004-04-20 08:16:32 51°8.879 2°35.235 9.564218 3.712401 34.22945 32.388802
2004-04-20 08:16:37 51°8.877 2°35.228 9.563415 3.712507 34.228976 32.085418
2004-04-20 08:16:42 51°8.875 2°35.222 9.562801 3.712718 34.231918 32.624768
2004-04-20 08:16:47 51°8.873 2°35.215 9.562801 3.712718 34.231918 32.624768
2004-04-20 08:16:51 51°8.871 2°35.21 9.565634 3.712718 34.231918 32.388802
2004-04-20 08:16:57 51°8.869 2°35.202 9.564218 3.712612 34.228503 32.388802
2004-04-20 08:17:01 51°8.867 2°35.197 9.562377 3.712718 34.231918 32.017999
2004-04-20 08:17:06 51°8.865 2°35.191 9.565729 3.712718 34.23114 31.748324
2004-04-20 08:17:12 51°8.863 2°35.183 9.560299 3.712928 34.232527 32.321383
2004-04-20 08:17:17 51°8.861 2°35.177 9.560299 3.712928 34.232527 32.321383
2004-04-20 08:17:22 51°8.859 2°35.17 9.564832 3.713034 34.234387 32.388802
2004-04-20 08:17:26 51°8.857 2°35.165 9.566909 3.712823 34.231445 32.48993
2004-04-20 08:17:32 51°8.855 2°35.157 9.564076 3.712823 34.232223 32.253965
2004-04-20 08:17:37 51°8.853 2°35.151 9.564501 3.713034 34.234387 32.085418
2004-04-20 08:17:41 51°8.851 2°35.146 9.563321 3.712928 34.233305 32.253965
2004-04-20 08:17:46 51°8.849 2°35.139 9.563321 3.712928 34.233305 32.253965
2004-04-20 08:17:52 51°8.847 2°35.132 9.563935 3.713245 34.236551 32.355093
2004-04-20 08:17:57 51°8.844 2°35.125 9.563226 3.713455 34.237937 32.759606
2004-04-20 08:18:01 51°8.842 2°35.12 9.56384 3.713455 34.238715 32.759606
2004-04-20 08:18:07 51°8.84 2°35.112 9.56554 3.713455 34.239493 32.52364
2004-04-20 08:18:12 51°8.838 2°35.106 9.561904 3.713139 34.237025 32.253965
2004-04-20 08:18:17 51°8.835 2°35.099 9.561904 3.713139 34.237025 32.253965
2004-04-20 08:18:21 51°8.833 2°35.094 9.564832 3.71335 34.238411 31.916871
2004-04-20 08:18:26 51°8.831 2°35.088 9.561149 3.713455 34.240271 31.815742
2004-04-20 08:18:32 51°8.828 2°35.08 9.562093 3.713139 34.236247 31.242683
2004-04-20 08:18:37 51°8.826 2°35.073 9.563651 3.713455 34.238715 31.714614
2004-04-20 08:18:42 51°8.824 2°35.067 9.562849 3.71335 34.238411 31.984289
2004-04-20 08:18:47 51°8.822 2°35.06 9.562849 3.71335 34.238411 31.984289
2004-04-20 08:18:52 51°8.819 2°35.054 9.562424 3.71335 34.237633 32.119127
2004-04-20 08:18:57 51°8.817 2°35.047 9.561715 3.713455 34.241049 32.456221
2004-04-20 08:19:01 51°8.815 2°35.042 9.560299 3.713455 34.240271 32.253965
2004-04-20 08:19:07 51°8.812 2°35.034 9.563085 3.713666 34.241657 32.085418
2004-04-20 08:19:12 51°8.81 2°35.028 9.560866 3.713666 34.242435 31.849452
2004-04-20 08:19:17 51°8.808 2°35.021 9.560866 3.713666 34.242435 31.849452
2004-04-20 08:19:21 51°8.806 2°35.016 9.560393 3.711664 34.22032 32.152836
2004-04-20 08:19:27 51°8.804 2°35.008 9.562849 3.711664 34.221876 32.624768
2004-04-20 08:19:31 51°8.802 2°35.003 9.563226 3.713455 34.240271 32.793315
2004-04-20 08:19:37 51°8.799 2°34.995 9.564407 3.713982 34.24646 32.591059
2004-04-20 08:19:42 51°8.797 2°34.989 9.564407 3.713455 34.240271 32.894443
2004-04-20 08:19:47 51°8.795 2°34.982 9.564407 3.713455 34.240271 32.894443
2004-04-20 08:19:52 51°8.792 2°34.976 9.563982 3.713561 34.241353 33.332665
2004-04-20 08:19:57 51°8.79 2°34.969 9.565304 3.713245 34.238107 33.164118
2004-04-20 08:20:01 51°8.788 2°34.964 9.567051 3.713877 34.2446 32.894443
2004-04-20 08:20:07 51°8.785 2°34.956 9.566012 3.712085 34.224648 32.456221
2004-04-20 08:20:12 51°8.783 2°34.95 9.565257 3.713245 34.235773 31.916871